<?xml version="1.0" encoding="UTF-8" standalone="no" ?>
<gpx xmlns="http://www.topografix.com/GPX/1/1" xmlns:xsi="http://www.w3.org/2001/XMLSchema-instance" xsi:schemaLocation="http://www.topografix.com/GPX/1/1 http://www.topografix.com/GPX/1/1/gpx.xsd" version="1.1" creator="VisuGPX - https://www.visugpx.com">
  <metadata>
    <name>Font de l\'Orme rocher de la croix de fer</name>
    <desc><![CDATA[ Du PK de font de l\'Orme, Nous nous engageons dans la combe de l\'Euse que nous remontons sur 4km  jusqu\'au rocher de la croix de fer. Là, sur notre droite se situe la sente que nous emprunterons  après un A/R au cairn du rocher de la croix de fer. Nous continuons à monter sur la gauche  pour rejoindre   ce superbe belvédère où nous avons une belle vue malgré un temps maussade. Après les Photos, nous retournons sur nos pas, pour emprunter la sente délaissée plus tôt, sur 3km , elle nous fait  rejoindre le GR97,  nous le suivons sur 200m direction Peyre Plate,  passer devant un revoir,   continuer à descendre direction le vieux Mérindol cité Vaudois. Après avoir visités les ruines du vieux Mérindol, une pluie fine nous fait accélérer le pas;, nous rejoindrons le GR6 en passant par la cote 306 et Sadaillan, il nous ramènera au PK. Cette randonnée nous fait découvrir le Pic Faiendre, Rochers des Cairas, Rocher des onze heures
trace GPX 
]]></desc>
  </metadata>
  <trk>
    <name><![CDATA[2014-02-16-01]]></name>
    <trkseg>
      <trkpt lat="43.77371" lon="5.19133">
        <ele>260</ele>
        <time>2014-02-16T08:33:50Z</time>
      </trkpt>
      <trkpt lat="43.77434" lon="5.19125">
        <ele>260</ele>
        <time>2014-02-16T08:34:06Z</time>
      </trkpt>
      <trkpt lat="43.77432" lon="5.19112">
        <ele>260.6</ele>
        <time>2014-02-16T08:34:43Z</time>
      </trkpt>
      <trkpt lat="43.77425" lon="5.19104">
        <ele>261.1</ele>
        <time>2014-02-16T08:35:01Z</time>
      </trkpt>
      <trkpt lat="43.77417" lon="5.19098">
        <ele>262</ele>
        <time>2014-02-16T08:36:10Z</time>
      </trkpt>
      <trkpt lat="43.77424" lon="5.1909">
        <ele>262.4</ele>
        <time>2014-02-16T08:36:38Z</time>
      </trkpt>
      <trkpt lat="43.77433" lon="5.19092">
        <ele>260.8</ele>
        <time>2014-02-16T08:36:47Z</time>
      </trkpt>
      <trkpt lat="43.77441" lon="5.19098">
        <ele>259.8</ele>
        <time>2014-02-16T08:36:56Z</time>
      </trkpt>
      <trkpt lat="43.77446" lon="5.19108">
        <ele>260</ele>
        <time>2014-02-16T08:37:07Z</time>
      </trkpt>
      <trkpt lat="43.77454" lon="5.19115">
        <ele>258.9</ele>
        <time>2014-02-16T08:37:19Z</time>
      </trkpt>
      <trkpt lat="43.77463" lon="5.19118">
        <ele>259.7</ele>
        <time>2014-02-16T08:37:34Z</time>
      </trkpt>
      <trkpt lat="43.77469" lon="5.19129">
        <ele>259.1</ele>
        <time>2014-02-16T08:37:45Z</time>
      </trkpt>
      <trkpt lat="43.77475" lon="5.19139">
        <ele>258.2</ele>
        <time>2014-02-16T08:37:54Z</time>
      </trkpt>
      <trkpt lat="43.77484" lon="5.19141">
        <ele>258</ele>
        <time>2014-02-16T08:38:07Z</time>
      </trkpt>
      <trkpt lat="43.77493" lon="5.19141">
        <ele>258.9</ele>
        <time>2014-02-16T08:38:19Z</time>
      </trkpt>
      <trkpt lat="43.77502" lon="5.19142">
        <ele>259.9</ele>
        <time>2014-02-16T08:38:32Z</time>
      </trkpt>
      <trkpt lat="43.77511" lon="5.19135">
        <ele>259.4</ele>
        <time>2014-02-16T08:39:07Z</time>
      </trkpt>
      <trkpt lat="43.77519" lon="5.19131">
        <ele>259.6</ele>
        <time>2014-02-16T08:39:19Z</time>
      </trkpt>
      <trkpt lat="43.77527" lon="5.19124">
        <ele>258.7</ele>
        <time>2014-02-16T08:39:31Z</time>
      </trkpt>
      <trkpt lat="43.77536" lon="5.19118">
        <ele>259.8</ele>
        <time>2014-02-16T08:39:42Z</time>
      </trkpt>
      <trkpt lat="43.77545" lon="5.19111">
        <ele>261.7</ele>
        <time>2014-02-16T08:39:51Z</time>
      </trkpt>
      <trkpt lat="43.77553" lon="5.19105">
        <ele>260.8</ele>
        <time>2014-02-16T08:39:59Z</time>
      </trkpt>
      <trkpt lat="43.77561" lon="5.191">
        <ele>262.4</ele>
        <time>2014-02-16T08:40:11Z</time>
      </trkpt>
      <trkpt lat="43.77569" lon="5.19092">
        <ele>262.6</ele>
        <time>2014-02-16T08:40:21Z</time>
      </trkpt>
      <trkpt lat="43.77576" lon="5.19084">
        <ele>263.6</ele>
        <time>2014-02-16T08:40:30Z</time>
      </trkpt>
      <trkpt lat="43.77583" lon="5.19075">
        <ele>263.2</ele>
        <time>2014-02-16T08:40:39Z</time>
      </trkpt>
      <trkpt lat="43.77589" lon="5.19066">
        <ele>264.2</ele>
        <time>2014-02-16T08:40:49Z</time>
      </trkpt>
      <trkpt lat="43.77597" lon="5.19061">
        <ele>264</ele>
        <time>2014-02-16T08:40:58Z</time>
      </trkpt>
      <trkpt lat="43.77607" lon="5.19056">
        <ele>263.3</ele>
        <time>2014-02-16T08:41:07Z</time>
      </trkpt>
      <trkpt lat="43.77617" lon="5.19055">
        <ele>263.9</ele>
        <time>2014-02-16T08:41:15Z</time>
      </trkpt>
      <trkpt lat="43.77626" lon="5.19054">
        <ele>264</ele>
        <time>2014-02-16T08:41:24Z</time>
      </trkpt>
      <trkpt lat="43.77636" lon="5.19051">
        <ele>265.9</ele>
        <time>2014-02-16T08:41:34Z</time>
      </trkpt>
      <trkpt lat="43.77644" lon="5.19048">
        <ele>264.9</ele>
        <time>2014-02-16T08:41:43Z</time>
      </trkpt>
      <trkpt lat="43.77653" lon="5.1905">
        <ele>266.8</ele>
        <time>2014-02-16T08:41:54Z</time>
      </trkpt>
      <trkpt lat="43.77672" lon="5.19045">
        <ele>266.9</ele>
        <time>2014-02-16T08:42:15Z</time>
      </trkpt>
      <trkpt lat="43.77682" lon="5.19045">
        <ele>266.8</ele>
        <time>2014-02-16T08:42:25Z</time>
      </trkpt>
      <trkpt lat="43.7769" lon="5.19038">
        <ele>268.1</ele>
        <time>2014-02-16T08:42:38Z</time>
      </trkpt>
      <trkpt lat="43.77695" lon="5.19029">
        <ele>269.2</ele>
        <time>2014-02-16T08:42:50Z</time>
      </trkpt>
      <trkpt lat="43.77705" lon="5.19027">
        <ele>268.8</ele>
        <time>2014-02-16T08:43:00Z</time>
      </trkpt>
      <trkpt lat="43.77723" lon="5.19034">
        <ele>268.8</ele>
        <time>2014-02-16T08:43:19Z</time>
      </trkpt>
      <trkpt lat="43.77733" lon="5.19033">
        <ele>269</ele>
        <time>2014-02-16T08:43:31Z</time>
      </trkpt>
      <trkpt lat="43.77742" lon="5.19031">
        <ele>269.7</ele>
        <time>2014-02-16T08:43:42Z</time>
      </trkpt>
      <trkpt lat="43.77752" lon="5.19028">
        <ele>269.4</ele>
        <time>2014-02-16T08:43:54Z</time>
      </trkpt>
      <trkpt lat="43.7776" lon="5.19022">
        <ele>271</ele>
        <time>2014-02-16T08:44:05Z</time>
      </trkpt>
      <trkpt lat="43.77777" lon="5.19009">
        <ele>271.9</ele>
        <time>2014-02-16T08:44:25Z</time>
      </trkpt>
      <trkpt lat="43.77785" lon="5.19002">
        <ele>271.3</ele>
        <time>2014-02-16T08:44:39Z</time>
      </trkpt>
      <trkpt lat="43.77793" lon="5.18995">
        <ele>272</ele>
        <time>2014-02-16T08:44:52Z</time>
      </trkpt>
      <trkpt lat="43.77802" lon="5.18994">
        <ele>271.7</ele>
        <time>2014-02-16T08:45:06Z</time>
      </trkpt>
      <trkpt lat="43.77822" lon="5.18995">
        <ele>273.3</ele>
        <time>2014-02-16T08:45:27Z</time>
      </trkpt>
      <trkpt lat="43.77831" lon="5.18996">
        <ele>274.3</ele>
        <time>2014-02-16T08:45:36Z</time>
      </trkpt>
      <trkpt lat="43.7784" lon="5.18997">
        <ele>273.8</ele>
        <time>2014-02-16T08:45:44Z</time>
      </trkpt>
      <trkpt lat="43.77849" lon="5.18994">
        <ele>275.3</ele>
        <time>2014-02-16T08:45:54Z</time>
      </trkpt>
      <trkpt lat="43.77858" lon="5.18991">
        <ele>272.8</ele>
        <time>2014-02-16T08:46:01Z</time>
      </trkpt>
      <trkpt lat="43.77868" lon="5.18989">
        <ele>275.4</ele>
        <time>2014-02-16T08:46:09Z</time>
      </trkpt>
      <trkpt lat="43.77886" lon="5.18984">
        <ele>275.3</ele>
        <time>2014-02-16T08:46:28Z</time>
      </trkpt>
      <trkpt lat="43.77894" lon="5.18979">
        <ele>275</ele>
        <time>2014-02-16T08:46:39Z</time>
      </trkpt>
      <trkpt lat="43.77903" lon="5.18975">
        <ele>277.4</ele>
        <time>2014-02-16T08:46:53Z</time>
      </trkpt>
      <trkpt lat="43.7791" lon="5.18967">
        <ele>276.7</ele>
        <time>2014-02-16T08:47:37Z</time>
      </trkpt>
      <trkpt lat="43.77922" lon="5.18947">
        <ele>276.2</ele>
        <time>2014-02-16T08:47:56Z</time>
      </trkpt>
      <trkpt lat="43.77929" lon="5.18938">
        <ele>278.4</ele>
        <time>2014-02-16T08:48:08Z</time>
      </trkpt>
      <trkpt lat="43.77936" lon="5.18929">
        <ele>278.8</ele>
        <time>2014-02-16T08:48:18Z</time>
      </trkpt>
      <trkpt lat="43.77944" lon="5.18921">
        <ele>279.8</ele>
        <time>2014-02-16T08:48:28Z</time>
      </trkpt>
      <trkpt lat="43.77948" lon="5.18909">
        <ele>279.1</ele>
        <time>2014-02-16T08:48:40Z</time>
      </trkpt>
      <trkpt lat="43.77951" lon="5.18885">
        <ele>281.7</ele>
        <time>2014-02-16T08:49:06Z</time>
      </trkpt>
      <trkpt lat="43.7795" lon="5.18872">
        <ele>281.7</ele>
        <time>2014-02-16T08:49:18Z</time>
      </trkpt>
      <trkpt lat="43.7795" lon="5.18858">
        <ele>281.5</ele>
        <time>2014-02-16T08:49:30Z</time>
      </trkpt>
      <trkpt lat="43.77948" lon="5.18846">
        <ele>281.9</ele>
        <time>2014-02-16T08:49:41Z</time>
      </trkpt>
      <trkpt lat="43.77952" lon="5.1882">
        <ele>284.7</ele>
        <time>2014-02-16T08:50:02Z</time>
      </trkpt>
      <trkpt lat="43.77961" lon="5.1882">
        <ele>283.9</ele>
        <time>2014-02-16T08:50:15Z</time>
      </trkpt>
      <trkpt lat="43.7797" lon="5.1882">
        <ele>285.1</ele>
        <time>2014-02-16T08:50:28Z</time>
      </trkpt>
      <trkpt lat="43.7798" lon="5.1882">
        <ele>284.8</ele>
        <time>2014-02-16T08:50:40Z</time>
      </trkpt>
      <trkpt lat="43.77989" lon="5.18818">
        <ele>286.1</ele>
        <time>2014-02-16T08:50:50Z</time>
      </trkpt>
      <trkpt lat="43.78007" lon="5.18817">
        <ele>287.3</ele>
        <time>2014-02-16T08:51:14Z</time>
      </trkpt>
      <trkpt lat="43.78015" lon="5.18821">
        <ele>287.8</ele>
        <time>2014-02-16T08:51:23Z</time>
      </trkpt>
      <trkpt lat="43.78025" lon="5.18823">
        <ele>288.8</ele>
        <time>2014-02-16T08:51:34Z</time>
      </trkpt>
      <trkpt lat="43.78034" lon="5.18826">
        <ele>289.2</ele>
        <time>2014-02-16T08:51:47Z</time>
      </trkpt>
      <trkpt lat="43.78043" lon="5.1883">
        <ele>289.9</ele>
        <time>2014-02-16T08:52:02Z</time>
      </trkpt>
      <trkpt lat="43.78061" lon="5.18837">
        <ele>289.4</ele>
        <time>2014-02-16T08:52:36Z</time>
      </trkpt>
      <trkpt lat="43.78068" lon="5.18846">
        <ele>289.8</ele>
        <time>2014-02-16T08:52:46Z</time>
      </trkpt>
      <trkpt lat="43.78075" lon="5.18855">
        <ele>290.6</ele>
        <time>2014-02-16T08:52:55Z</time>
      </trkpt>
      <trkpt lat="43.78083" lon="5.18861">
        <ele>290.2</ele>
        <time>2014-02-16T08:53:05Z</time>
      </trkpt>
      <trkpt lat="43.78098" lon="5.18878">
        <ele>291.4</ele>
        <time>2014-02-16T08:53:25Z</time>
      </trkpt>
      <trkpt lat="43.78106" lon="5.18884">
        <ele>291.7</ele>
        <time>2014-02-16T08:53:35Z</time>
      </trkpt>
      <trkpt lat="43.78114" lon="5.18889">
        <ele>291.3</ele>
        <time>2014-02-16T08:53:45Z</time>
      </trkpt>
      <trkpt lat="43.78124" lon="5.1889">
        <ele>292.7</ele>
        <time>2014-02-16T08:53:58Z</time>
      </trkpt>
      <trkpt lat="43.78133" lon="5.18889">
        <ele>292.4</ele>
        <time>2014-02-16T08:54:09Z</time>
      </trkpt>
      <trkpt lat="43.78151" lon="5.18892">
        <ele>294</ele>
        <time>2014-02-16T08:54:32Z</time>
      </trkpt>
      <trkpt lat="43.78161" lon="5.18897">
        <ele>293.9</ele>
        <time>2014-02-16T08:54:43Z</time>
      </trkpt>
      <trkpt lat="43.7817" lon="5.18901">
        <ele>295.3</ele>
        <time>2014-02-16T08:54:54Z</time>
      </trkpt>
      <trkpt lat="43.78179" lon="5.18904">
        <ele>295.5</ele>
        <time>2014-02-16T08:55:06Z</time>
      </trkpt>
      <trkpt lat="43.78189" lon="5.18908">
        <ele>296.2</ele>
        <time>2014-02-16T08:55:18Z</time>
      </trkpt>
      <trkpt lat="43.78207" lon="5.18908">
        <ele>297</ele>
        <time>2014-02-16T08:55:38Z</time>
      </trkpt>
      <trkpt lat="43.78216" lon="5.18906">
        <ele>297.2</ele>
        <time>2014-02-16T08:55:50Z</time>
      </trkpt>
      <trkpt lat="43.78225" lon="5.18902">
        <ele>298.6</ele>
        <time>2014-02-16T08:56:03Z</time>
      </trkpt>
      <trkpt lat="43.78235" lon="5.18902">
        <ele>299.1</ele>
        <time>2014-02-16T08:56:14Z</time>
      </trkpt>
      <trkpt lat="43.78244" lon="5.18902">
        <ele>297.9</ele>
        <time>2014-02-16T08:56:29Z</time>
      </trkpt>
      <trkpt lat="43.78262" lon="5.18901">
        <ele>298.6</ele>
        <time>2014-02-16T08:57:21Z</time>
      </trkpt>
      <trkpt lat="43.78272" lon="5.18899">
        <ele>299.7</ele>
        <time>2014-02-16T08:57:33Z</time>
      </trkpt>
      <trkpt lat="43.7829" lon="5.18895">
        <ele>299.7</ele>
        <time>2014-02-16T08:57:53Z</time>
      </trkpt>
      <trkpt lat="43.78299" lon="5.18893">
        <ele>300.1</ele>
        <time>2014-02-16T08:58:14Z</time>
      </trkpt>
      <trkpt lat="43.78308" lon="5.1889">
        <ele>301.3</ele>
        <time>2014-02-16T08:58:29Z</time>
      </trkpt>
      <trkpt lat="43.78318" lon="5.18887">
        <ele>302.3</ele>
        <time>2014-02-16T08:58:43Z</time>
      </trkpt>
      <trkpt lat="43.78337" lon="5.18886">
        <ele>302.3</ele>
        <time>2014-02-16T08:59:04Z</time>
      </trkpt>
      <trkpt lat="43.78346" lon="5.18888">
        <ele>303.1</ele>
        <time>2014-02-16T08:59:14Z</time>
      </trkpt>
      <trkpt lat="43.78354" lon="5.18894">
        <ele>303.6</ele>
        <time>2014-02-16T08:59:24Z</time>
      </trkpt>
      <trkpt lat="43.78362" lon="5.18901">
        <ele>304.7</ele>
        <time>2014-02-16T08:59:34Z</time>
      </trkpt>
      <trkpt lat="43.78369" lon="5.1891">
        <ele>303.4</ele>
        <time>2014-02-16T08:59:45Z</time>
      </trkpt>
      <trkpt lat="43.78383" lon="5.18928">
        <ele>304.4</ele>
        <time>2014-02-16T09:00:07Z</time>
      </trkpt>
      <trkpt lat="43.78387" lon="5.18939">
        <ele>305</ele>
        <time>2014-02-16T09:00:21Z</time>
      </trkpt>
      <trkpt lat="43.7839" lon="5.18951">
        <ele>305.7</ele>
        <time>2014-02-16T09:00:34Z</time>
      </trkpt>
      <trkpt lat="43.78388" lon="5.18963">
        <ele>306.3</ele>
        <time>2014-02-16T09:00:46Z</time>
      </trkpt>
      <trkpt lat="43.78394" lon="5.18987">
        <ele>308.4</ele>
        <time>2014-02-16T09:01:10Z</time>
      </trkpt>
      <trkpt lat="43.78402" lon="5.18994">
        <ele>308.3</ele>
        <time>2014-02-16T09:01:25Z</time>
      </trkpt>
      <trkpt lat="43.7841" lon="5.18998">
        <ele>309.4</ele>
        <time>2014-02-16T09:01:36Z</time>
      </trkpt>
      <trkpt lat="43.78419" lon="5.19003">
        <ele>309.2</ele>
        <time>2014-02-16T09:01:47Z</time>
      </trkpt>
      <trkpt lat="43.78434" lon="5.19017">
        <ele>309.9</ele>
        <time>2014-02-16T09:02:08Z</time>
      </trkpt>
      <trkpt lat="43.7844" lon="5.19027">
        <ele>311.7</ele>
        <time>2014-02-16T09:02:18Z</time>
      </trkpt>
      <trkpt lat="43.78447" lon="5.19035">
        <ele>311.5</ele>
        <time>2014-02-16T09:02:29Z</time>
      </trkpt>
      <trkpt lat="43.78452" lon="5.19046">
        <ele>313.4</ele>
        <time>2014-02-16T09:02:42Z</time>
      </trkpt>
      <trkpt lat="43.78459" lon="5.19056">
        <ele>314.1</ele>
        <time>2014-02-16T09:02:52Z</time>
      </trkpt>
      <trkpt lat="43.78475" lon="5.19069">
        <ele>314.9</ele>
        <time>2014-02-16T09:03:15Z</time>
      </trkpt>
      <trkpt lat="43.78484" lon="5.19076">
        <ele>314.3</ele>
        <time>2014-02-16T09:03:27Z</time>
      </trkpt>
      <trkpt lat="43.78492" lon="5.19084">
        <ele>315.5</ele>
        <time>2014-02-16T09:03:39Z</time>
      </trkpt>
      <trkpt lat="43.785" lon="5.1909">
        <ele>315.2</ele>
        <time>2014-02-16T09:03:49Z</time>
      </trkpt>
      <trkpt lat="43.78509" lon="5.19097">
        <ele>316.5</ele>
        <time>2014-02-16T09:04:02Z</time>
      </trkpt>
      <trkpt lat="43.78525" lon="5.19112">
        <ele>317.2</ele>
        <time>2014-02-16T09:04:23Z</time>
      </trkpt>
      <trkpt lat="43.78532" lon="5.19122">
        <ele>318.4</ele>
        <time>2014-02-16T09:04:34Z</time>
      </trkpt>
      <trkpt lat="43.7854" lon="5.19127">
        <ele>318.8</ele>
        <time>2014-02-16T09:04:43Z</time>
      </trkpt>
      <trkpt lat="43.78549" lon="5.19127">
        <ele>319.1</ele>
        <time>2014-02-16T09:04:53Z</time>
      </trkpt>
      <trkpt lat="43.78554" lon="5.19138">
        <ele>320.6</ele>
        <time>2014-02-16T09:05:55Z</time>
      </trkpt>
      <trkpt lat="43.78562" lon="5.19143">
        <ele>322.4</ele>
        <time>2014-02-16T09:08:18Z</time>
      </trkpt>
      <trkpt lat="43.78579" lon="5.19154">
        <ele>322.5</ele>
        <time>2014-02-16T09:08:56Z</time>
      </trkpt>
      <trkpt lat="43.78587" lon="5.1916">
        <ele>323.3</ele>
        <time>2014-02-16T09:09:07Z</time>
      </trkpt>
      <trkpt lat="43.78595" lon="5.19167">
        <ele>323.1</ele>
        <time>2014-02-16T09:09:20Z</time>
      </trkpt>
      <trkpt lat="43.78609" lon="5.19184">
        <ele>323.8</ele>
        <time>2014-02-16T09:09:43Z</time>
      </trkpt>
      <trkpt lat="43.78618" lon="5.1919">
        <ele>324.6</ele>
        <time>2014-02-16T09:09:56Z</time>
      </trkpt>
      <trkpt lat="43.78628" lon="5.19194">
        <ele>325.5</ele>
        <time>2014-02-16T09:10:07Z</time>
      </trkpt>
      <trkpt lat="43.78637" lon="5.19199">
        <ele>326.3</ele>
        <time>2014-02-16T09:10:18Z</time>
      </trkpt>
      <trkpt lat="43.78643" lon="5.1921">
        <ele>327.6</ele>
        <time>2014-02-16T09:10:29Z</time>
      </trkpt>
      <trkpt lat="43.78657" lon="5.19227">
        <ele>327.6</ele>
        <time>2014-02-16T09:10:50Z</time>
      </trkpt>
      <trkpt lat="43.78665" lon="5.19233">
        <ele>329.2</ele>
        <time>2014-02-16T09:11:02Z</time>
      </trkpt>
      <trkpt lat="43.78673" lon="5.19239">
        <ele>329.1</ele>
        <time>2014-02-16T09:11:13Z</time>
      </trkpt>
      <trkpt lat="43.78681" lon="5.19244">
        <ele>330.5</ele>
        <time>2014-02-16T09:11:25Z</time>
      </trkpt>
      <trkpt lat="43.78691" lon="5.19246">
        <ele>331</ele>
        <time>2014-02-16T09:11:39Z</time>
      </trkpt>
      <trkpt lat="43.78709" lon="5.19254">
        <ele>331.7</ele>
        <time>2014-02-16T09:11:58Z</time>
      </trkpt>
      <trkpt lat="43.78717" lon="5.19259">
        <ele>334</ele>
        <time>2014-02-16T09:12:09Z</time>
      </trkpt>
      <trkpt lat="43.78726" lon="5.19261">
        <ele>334.5</ele>
        <time>2014-02-16T09:12:18Z</time>
      </trkpt>
      <trkpt lat="43.78735" lon="5.19266">
        <ele>335.1</ele>
        <time>2014-02-16T09:12:28Z</time>
      </trkpt>
      <trkpt lat="43.78744" lon="5.19269">
        <ele>336.7</ele>
        <time>2014-02-16T09:12:43Z</time>
      </trkpt>
      <trkpt lat="43.78762" lon="5.19279">
        <ele>336.9</ele>
        <time>2014-02-16T09:13:04Z</time>
      </trkpt>
      <trkpt lat="43.7877" lon="5.19285">
        <ele>337.9</ele>
        <time>2014-02-16T09:13:15Z</time>
      </trkpt>
      <trkpt lat="43.78776" lon="5.19295">
        <ele>338.3</ele>
        <time>2014-02-16T09:13:30Z</time>
      </trkpt>
      <trkpt lat="43.78781" lon="5.19306">
        <ele>339.9</ele>
        <time>2014-02-16T09:13:46Z</time>
      </trkpt>
      <trkpt lat="43.78783" lon="5.19332">
        <ele>339.8</ele>
        <time>2014-02-16T09:14:08Z</time>
      </trkpt>
      <trkpt lat="43.78783" lon="5.19346">
        <ele>341.1</ele>
        <time>2014-02-16T09:14:20Z</time>
      </trkpt>
      <trkpt lat="43.78781" lon="5.19359">
        <ele>341.2</ele>
        <time>2014-02-16T09:14:35Z</time>
      </trkpt>
      <trkpt lat="43.78781" lon="5.19371">
        <ele>342.1</ele>
        <time>2014-02-16T09:14:49Z</time>
      </trkpt>
      <trkpt lat="43.78782" lon="5.19397">
        <ele>343.2</ele>
        <time>2014-02-16T09:15:15Z</time>
      </trkpt>
      <trkpt lat="43.78784" lon="5.1941">
        <ele>343.9</ele>
        <time>2014-02-16T09:15:29Z</time>
      </trkpt>
      <trkpt lat="43.78787" lon="5.19422">
        <ele>345.5</ele>
        <time>2014-02-16T09:15:42Z</time>
      </trkpt>
      <trkpt lat="43.78793" lon="5.1943">
        <ele>345.1</ele>
        <time>2014-02-16T09:15:55Z</time>
      </trkpt>
      <trkpt lat="43.78809" lon="5.19443">
        <ele>346.1</ele>
        <time>2014-02-16T09:16:25Z</time>
      </trkpt>
      <trkpt lat="43.78818" lon="5.19449">
        <ele>346.6</ele>
        <time>2014-02-16T09:16:37Z</time>
      </trkpt>
      <trkpt lat="43.78826" lon="5.19456">
        <ele>347.6</ele>
        <time>2014-02-16T09:16:48Z</time>
      </trkpt>
      <trkpt lat="43.78833" lon="5.19464">
        <ele>349.2</ele>
        <time>2014-02-16T09:17:03Z</time>
      </trkpt>
      <trkpt lat="43.7885" lon="5.19478">
        <ele>351.4</ele>
        <time>2014-02-16T09:17:25Z</time>
      </trkpt>
      <trkpt lat="43.78859" lon="5.19475">
        <ele>353.8</ele>
        <time>2014-02-16T09:17:46Z</time>
      </trkpt>
      <trkpt lat="43.78864" lon="5.19485">
        <ele>354.2</ele>
        <time>2014-02-16T09:18:04Z</time>
      </trkpt>
      <trkpt lat="43.78873" lon="5.19472">
        <ele>355.8</ele>
        <time>2014-02-16T09:19:06Z</time>
      </trkpt>
      <trkpt lat="43.7889" lon="5.19468">
        <ele>360.4</ele>
        <time>2014-02-16T09:21:36Z</time>
      </trkpt>
      <trkpt lat="43.78895" lon="5.19445">
        <ele>361.6</ele>
        <time>2014-02-16T09:22:40Z</time>
      </trkpt>
      <trkpt lat="43.78909" lon="5.19432">
        <ele>364</ele>
        <time>2014-02-16T09:23:19Z</time>
      </trkpt>
      <trkpt lat="43.78919" lon="5.19432">
        <ele>364.8</ele>
        <time>2014-02-16T09:23:45Z</time>
      </trkpt>
      <trkpt lat="43.78937" lon="5.19434">
        <ele>366.2</ele>
        <time>2014-02-16T09:24:23Z</time>
      </trkpt>
      <trkpt lat="43.78946" lon="5.19437">
        <ele>367.3</ele>
        <time>2014-02-16T09:24:37Z</time>
      </trkpt>
      <trkpt lat="43.78951" lon="5.19448">
        <ele>368.9</ele>
        <time>2014-02-16T09:25:18Z</time>
      </trkpt>
      <trkpt lat="43.78968" lon="5.19456">
        <ele>369.3</ele>
        <time>2014-02-16T09:25:51Z</time>
      </trkpt>
      <trkpt lat="43.78976" lon="5.19451">
        <ele>370.3</ele>
        <time>2014-02-16T09:26:05Z</time>
      </trkpt>
      <trkpt lat="43.78986" lon="5.1945">
        <ele>370.3</ele>
        <time>2014-02-16T09:26:15Z</time>
      </trkpt>
      <trkpt lat="43.78995" lon="5.19453">
        <ele>370.4</ele>
        <time>2014-02-16T09:26:24Z</time>
      </trkpt>
      <trkpt lat="43.79009" lon="5.19471">
        <ele>372</ele>
        <time>2014-02-16T09:27:06Z</time>
      </trkpt>
      <trkpt lat="43.79014" lon="5.19481">
        <ele>372.9</ele>
        <time>2014-02-16T09:28:48Z</time>
      </trkpt>
      <trkpt lat="43.79029" lon="5.19498">
        <ele>374</ele>
        <time>2014-02-16T09:29:14Z</time>
      </trkpt>
      <trkpt lat="43.79037" lon="5.19505">
        <ele>374</ele>
        <time>2014-02-16T09:29:24Z</time>
      </trkpt>
      <trkpt lat="43.79044" lon="5.19515">
        <ele>374.6</ele>
        <time>2014-02-16T09:29:34Z</time>
      </trkpt>
      <trkpt lat="43.79048" lon="5.19527">
        <ele>374</ele>
        <time>2014-02-16T09:29:45Z</time>
      </trkpt>
      <trkpt lat="43.79054" lon="5.19537">
        <ele>375.2</ele>
        <time>2014-02-16T09:30:00Z</time>
      </trkpt>
      <trkpt lat="43.79071" lon="5.19537">
        <ele>377.6</ele>
        <time>2014-02-16T09:30:28Z</time>
      </trkpt>
      <trkpt lat="43.7908" lon="5.19537">
        <ele>377.3</ele>
        <time>2014-02-16T09:30:37Z</time>
      </trkpt>
      <trkpt lat="43.79089" lon="5.19538">
        <ele>377.6</ele>
        <time>2014-02-16T09:30:45Z</time>
      </trkpt>
      <trkpt lat="43.79099" lon="5.1954">
        <ele>378.1</ele>
        <time>2014-02-16T09:30:53Z</time>
      </trkpt>
      <trkpt lat="43.79107" lon="5.19547">
        <ele>378.2</ele>
        <time>2014-02-16T09:31:04Z</time>
      </trkpt>
      <trkpt lat="43.7912" lon="5.19565">
        <ele>379.8</ele>
        <time>2014-02-16T09:31:22Z</time>
      </trkpt>
      <trkpt lat="43.79124" lon="5.19577">
        <ele>381.4</ele>
        <time>2014-02-16T09:31:31Z</time>
      </trkpt>
      <trkpt lat="43.79125" lon="5.1959">
        <ele>382.1</ele>
        <time>2014-02-16T09:31:42Z</time>
      </trkpt>
      <trkpt lat="43.79126" lon="5.19603">
        <ele>384.2</ele>
        <time>2014-02-16T09:31:55Z</time>
      </trkpt>
      <trkpt lat="43.79126" lon="5.19616">
        <ele>384.3</ele>
        <time>2014-02-16T09:32:06Z</time>
      </trkpt>
      <trkpt lat="43.79129" lon="5.19643">
        <ele>386.8</ele>
        <time>2014-02-16T09:32:26Z</time>
      </trkpt>
      <trkpt lat="43.7913" lon="5.19656">
        <ele>388</ele>
        <time>2014-02-16T09:32:36Z</time>
      </trkpt>
      <trkpt lat="43.79125" lon="5.19668">
        <ele>389.2</ele>
        <time>2014-02-16T09:32:45Z</time>
      </trkpt>
      <trkpt lat="43.79121" lon="5.1968">
        <ele>389.3</ele>
        <time>2014-02-16T09:32:57Z</time>
      </trkpt>
      <trkpt lat="43.79114" lon="5.19689">
        <ele>390.2</ele>
        <time>2014-02-16T09:33:07Z</time>
      </trkpt>
      <trkpt lat="43.79099" lon="5.19705">
        <ele>391.2</ele>
        <time>2014-02-16T09:33:25Z</time>
      </trkpt>
      <trkpt lat="43.79093" lon="5.19715">
        <ele>393.1</ele>
        <time>2014-02-16T09:33:38Z</time>
      </trkpt>
      <trkpt lat="43.79089" lon="5.19726">
        <ele>394</ele>
        <time>2014-02-16T09:33:48Z</time>
      </trkpt>
      <trkpt lat="43.79085" lon="5.19739">
        <ele>396.2</ele>
        <time>2014-02-16T09:33:58Z</time>
      </trkpt>
      <trkpt lat="43.79081" lon="5.19751">
        <ele>396.2</ele>
        <time>2014-02-16T09:34:10Z</time>
      </trkpt>
      <trkpt lat="43.79068" lon="5.19763">
        <ele>396.9</ele>
        <time>2014-02-16T09:35:23Z</time>
      </trkpt>
      <trkpt lat="43.79079" lon="5.19775">
        <ele>397.9</ele>
        <time>2014-02-16T09:37:26Z</time>
      </trkpt>
      <trkpt lat="43.79081" lon="5.19801">
        <ele>400.6</ele>
        <time>2014-02-16T09:37:53Z</time>
      </trkpt>
      <trkpt lat="43.79084" lon="5.19813">
        <ele>401.1</ele>
        <time>2014-02-16T09:38:06Z</time>
      </trkpt>
      <trkpt lat="43.79089" lon="5.19825">
        <ele>401.8</ele>
        <time>2014-02-16T09:38:18Z</time>
      </trkpt>
      <trkpt lat="43.79094" lon="5.19837">
        <ele>403.8</ele>
        <time>2014-02-16T09:38:29Z</time>
      </trkpt>
      <trkpt lat="43.791" lon="5.19862">
        <ele>405.3</ele>
        <time>2014-02-16T09:38:54Z</time>
      </trkpt>
      <trkpt lat="43.79103" lon="5.19874">
        <ele>407.4</ele>
        <time>2014-02-16T09:39:05Z</time>
      </trkpt>
      <trkpt lat="43.79106" lon="5.19887">
        <ele>407.8</ele>
        <time>2014-02-16T09:39:17Z</time>
      </trkpt>
      <trkpt lat="43.79109" lon="5.199">
        <ele>408.8</ele>
        <time>2014-02-16T09:39:29Z</time>
      </trkpt>
      <trkpt lat="43.79109" lon="5.19913">
        <ele>409.4</ele>
        <time>2014-02-16T09:39:41Z</time>
      </trkpt>
      <trkpt lat="43.79098" lon="5.19934">
        <ele>412</ele>
        <time>2014-02-16T09:40:06Z</time>
      </trkpt>
      <trkpt lat="43.79093" lon="5.19945">
        <ele>414.5</ele>
        <time>2014-02-16T09:40:20Z</time>
      </trkpt>
      <trkpt lat="43.7909" lon="5.19957">
        <ele>415.5</ele>
        <time>2014-02-16T09:40:33Z</time>
      </trkpt>
      <trkpt lat="43.79087" lon="5.19969">
        <ele>417.5</ele>
        <time>2014-02-16T09:40:48Z</time>
      </trkpt>
      <trkpt lat="43.79097" lon="5.19989">
        <ele>420.7</ele>
        <time>2014-02-16T09:41:19Z</time>
      </trkpt>
      <trkpt lat="43.79104" lon="5.19998">
        <ele>422.4</ele>
        <time>2014-02-16T09:41:32Z</time>
      </trkpt>
      <trkpt lat="43.79113" lon="5.20004">
        <ele>423.6</ele>
        <time>2014-02-16T09:41:44Z</time>
      </trkpt>
      <trkpt lat="43.7912" lon="5.20011">
        <ele>425.6</ele>
        <time>2014-02-16T09:41:57Z</time>
      </trkpt>
      <trkpt lat="43.79129" lon="5.20034">
        <ele>426.3</ele>
        <time>2014-02-16T09:42:22Z</time>
      </trkpt>
      <trkpt lat="43.79135" lon="5.20044">
        <ele>426.8</ele>
        <time>2014-02-16T09:42:35Z</time>
      </trkpt>
      <trkpt lat="43.79139" lon="5.20054">
        <ele>428.5</ele>
        <time>2014-02-16T09:42:50Z</time>
      </trkpt>
      <trkpt lat="43.79143" lon="5.20066">
        <ele>428.5</ele>
        <time>2014-02-16T09:43:03Z</time>
      </trkpt>
      <trkpt lat="43.79152" lon="5.20087">
        <ele>430.7</ele>
        <time>2014-02-16T09:43:34Z</time>
      </trkpt>
      <trkpt lat="43.79153" lon="5.201">
        <ele>430.6</ele>
        <time>2014-02-16T09:43:49Z</time>
      </trkpt>
      <trkpt lat="43.79156" lon="5.20112">
        <ele>431.1</ele>
        <time>2014-02-16T09:44:01Z</time>
      </trkpt>
      <trkpt lat="43.7916" lon="5.20124">
        <ele>432</ele>
        <time>2014-02-16T09:44:15Z</time>
      </trkpt>
      <trkpt lat="43.79164" lon="5.20148">
        <ele>433.3</ele>
        <time>2014-02-16T09:44:41Z</time>
      </trkpt>
      <trkpt lat="43.7916" lon="5.2016">
        <ele>433.4</ele>
        <time>2014-02-16T09:45:20Z</time>
      </trkpt>
      <trkpt lat="43.79159" lon="5.20186">
        <ele>435.3</ele>
        <time>2014-02-16T09:45:45Z</time>
      </trkpt>
      <trkpt lat="43.79159" lon="5.20199">
        <ele>435.8</ele>
        <time>2014-02-16T09:45:56Z</time>
      </trkpt>
      <trkpt lat="43.79161" lon="5.20211">
        <ele>437.4</ele>
        <time>2014-02-16T09:46:05Z</time>
      </trkpt>
      <trkpt lat="43.79163" lon="5.20225">
        <ele>438.8</ele>
        <time>2014-02-16T09:46:16Z</time>
      </trkpt>
      <trkpt lat="43.79168" lon="5.20236">
        <ele>440.3</ele>
        <time>2014-02-16T09:46:27Z</time>
      </trkpt>
      <trkpt lat="43.79177" lon="5.2026">
        <ele>442.3</ele>
        <time>2014-02-16T09:46:48Z</time>
      </trkpt>
      <trkpt lat="43.79178" lon="5.20273">
        <ele>445.7</ele>
        <time>2014-02-16T09:47:00Z</time>
      </trkpt>
      <trkpt lat="43.79179" lon="5.20287">
        <ele>446.4</ele>
        <time>2014-02-16T09:47:14Z</time>
      </trkpt>
      <trkpt lat="43.79178" lon="5.20299">
        <ele>447.2</ele>
        <time>2014-02-16T09:47:27Z</time>
      </trkpt>
      <trkpt lat="43.79182" lon="5.20311">
        <ele>447.7</ele>
        <time>2014-02-16T09:47:43Z</time>
      </trkpt>
      <trkpt lat="43.79192" lon="5.20326">
        <ele>450.7</ele>
        <time>2014-02-16T09:48:27Z</time>
      </trkpt>
      <trkpt lat="43.79193" lon="5.20339">
        <ele>452.6</ele>
        <time>2014-02-16T09:48:42Z</time>
      </trkpt>
      <trkpt lat="43.79189" lon="5.20351">
        <ele>449.6</ele>
        <time>2014-02-16T09:48:58Z</time>
      </trkpt>
      <trkpt lat="43.79188" lon="5.20375">
        <ele>452.5</ele>
        <time>2014-02-16T09:49:33Z</time>
      </trkpt>
      <trkpt lat="43.7919" lon="5.20387">
        <ele>453.3</ele>
        <time>2014-02-16T09:49:51Z</time>
      </trkpt>
      <trkpt lat="43.79187" lon="5.204">
        <ele>454.2</ele>
        <time>2014-02-16T09:50:04Z</time>
      </trkpt>
      <trkpt lat="43.79186" lon="5.20425">
        <ele>457.8</ele>
        <time>2014-02-16T09:50:51Z</time>
      </trkpt>
      <trkpt lat="43.79185" lon="5.20437">
        <ele>460.3</ele>
        <time>2014-02-16T09:51:11Z</time>
      </trkpt>
      <trkpt lat="43.79196" lon="5.20459">
        <ele>461.6</ele>
        <time>2014-02-16T09:51:57Z</time>
      </trkpt>
      <trkpt lat="43.79196" lon="5.20472">
        <ele>462.5</ele>
        <time>2014-02-16T09:52:09Z</time>
      </trkpt>
      <trkpt lat="43.79198" lon="5.20485">
        <ele>463.5</ele>
        <time>2014-02-16T09:52:19Z</time>
      </trkpt>
      <trkpt lat="43.79198" lon="5.2051">
        <ele>467.7</ele>
        <time>2014-02-16T09:52:47Z</time>
      </trkpt>
      <trkpt lat="43.79207" lon="5.20514">
        <ele>466.4</ele>
        <time>2014-02-16T09:53:01Z</time>
      </trkpt>
      <trkpt lat="43.79215" lon="5.2052">
        <ele>469.5</ele>
        <time>2014-02-16T09:53:21Z</time>
      </trkpt>
      <trkpt lat="43.79209" lon="5.20543">
        <ele>474.5</ele>
        <time>2014-02-16T09:53:38Z</time>
      </trkpt>
      <trkpt lat="43.79204" lon="5.20554">
        <ele>475.7</ele>
        <time>2014-02-16T09:53:50Z</time>
      </trkpt>
      <trkpt lat="43.79198" lon="5.20564">
        <ele>476.4</ele>
        <time>2014-02-16T09:54:01Z</time>
      </trkpt>
      <trkpt lat="43.79193" lon="5.20576">
        <ele>477.9</ele>
        <time>2014-02-16T09:54:19Z</time>
      </trkpt>
      <trkpt lat="43.79194" lon="5.20588">
        <ele>480.8</ele>
        <time>2014-02-16T09:54:36Z</time>
      </trkpt>
      <trkpt lat="43.79211" lon="5.20601">
        <ele>483.2</ele>
        <time>2014-02-16T09:55:13Z</time>
      </trkpt>
      <trkpt lat="43.7922" lon="5.20604">
        <ele>483.4</ele>
        <time>2014-02-16T09:55:29Z</time>
      </trkpt>
      <trkpt lat="43.79218" lon="5.20617">
        <ele>485.1</ele>
        <time>2014-02-16T09:55:46Z</time>
      </trkpt>
      <trkpt lat="43.79206" lon="5.20612">
        <ele>486.9</ele>
        <time>2014-02-16T09:56:40Z</time>
      </trkpt>
      <trkpt lat="43.79202" lon="5.20623">
        <ele>487.9</ele>
        <time>2014-02-16T09:57:04Z</time>
      </trkpt>
      <trkpt lat="43.7919" lon="5.20642">
        <ele>487.4</ele>
        <time>2014-02-16T09:57:40Z</time>
      </trkpt>
      <trkpt lat="43.79191" lon="5.20655">
        <ele>487.8</ele>
        <time>2014-02-16T09:57:58Z</time>
      </trkpt>
      <trkpt lat="43.79186" lon="5.20666">
        <ele>487.6</ele>
        <time>2014-02-16T09:58:17Z</time>
      </trkpt>
      <trkpt lat="43.79184" lon="5.2069">
        <ele>489.2</ele>
        <time>2014-02-16T09:59:09Z</time>
      </trkpt>
      <trkpt lat="43.79182" lon="5.20702">
        <ele>491.4</ele>
        <time>2014-02-16T09:59:20Z</time>
      </trkpt>
      <trkpt lat="43.7918" lon="5.20728">
        <ele>493.9</ele>
        <time>2014-02-16T09:59:44Z</time>
      </trkpt>
      <trkpt lat="43.79183" lon="5.2074">
        <ele>494</ele>
        <time>2014-02-16T09:59:54Z</time>
      </trkpt>
      <trkpt lat="43.79189" lon="5.20751">
        <ele>495.1</ele>
        <time>2014-02-16T10:00:04Z</time>
      </trkpt>
      <trkpt lat="43.79191" lon="5.20764">
        <ele>496.2</ele>
        <time>2014-02-16T10:00:15Z</time>
      </trkpt>
      <trkpt lat="43.79195" lon="5.20776">
        <ele>497.6</ele>
        <time>2014-02-16T10:00:26Z</time>
      </trkpt>
      <trkpt lat="43.79194" lon="5.20802">
        <ele>500.8</ele>
        <time>2014-02-16T10:00:47Z</time>
      </trkpt>
      <trkpt lat="43.79194" lon="5.20815">
        <ele>502</ele>
        <time>2014-02-16T10:00:58Z</time>
      </trkpt>
      <trkpt lat="43.79197" lon="5.20827">
        <ele>504.4</ele>
        <time>2014-02-16T10:01:14Z</time>
      </trkpt>
      <trkpt lat="43.79205" lon="5.2083">
        <ele>506.7</ele>
        <time>2014-02-16T10:01:28Z</time>
      </trkpt>
      <trkpt lat="43.79219" lon="5.20847">
        <ele>517.1</ele>
        <time>2014-02-16T10:03:17Z</time>
      </trkpt>
      <trkpt lat="43.79232" lon="5.2086">
        <ele>521.1</ele>
        <time>2014-02-16T10:03:46Z</time>
      </trkpt>
      <trkpt lat="43.79242" lon="5.2086">
        <ele>522</ele>
        <time>2014-02-16T10:04:00Z</time>
      </trkpt>
      <trkpt lat="43.79251" lon="5.20859">
        <ele>522</ele>
        <time>2014-02-16T10:04:11Z</time>
      </trkpt>
      <trkpt lat="43.7926" lon="5.20858">
        <ele>522.4</ele>
        <time>2014-02-16T10:04:19Z</time>
      </trkpt>
      <trkpt lat="43.79253" lon="5.20882">
        <ele>522.7</ele>
        <time>2014-02-16T10:05:12Z</time>
      </trkpt>
      <trkpt lat="43.79247" lon="5.20892">
        <ele>523.3</ele>
        <time>2014-02-16T10:05:30Z</time>
      </trkpt>
      <trkpt lat="43.79248" lon="5.20919">
        <ele>526.1</ele>
        <time>2014-02-16T10:06:03Z</time>
      </trkpt>
      <trkpt lat="43.79251" lon="5.20931">
        <ele>528.7</ele>
        <time>2014-02-16T10:06:18Z</time>
      </trkpt>
      <trkpt lat="43.79254" lon="5.20943">
        <ele>530.3</ele>
        <time>2014-02-16T10:06:31Z</time>
      </trkpt>
      <trkpt lat="43.79254" lon="5.20957">
        <ele>530.1</ele>
        <time>2014-02-16T10:06:42Z</time>
      </trkpt>
      <trkpt lat="43.79256" lon="5.20983">
        <ele>532.1</ele>
        <time>2014-02-16T10:07:05Z</time>
      </trkpt>
      <trkpt lat="43.79256" lon="5.20996">
        <ele>532.7</ele>
        <time>2014-02-16T10:07:16Z</time>
      </trkpt>
      <trkpt lat="43.79261" lon="5.21008">
        <ele>533.1</ele>
        <time>2014-02-16T10:07:28Z</time>
      </trkpt>
      <trkpt lat="43.79269" lon="5.21015">
        <ele>535.1</ele>
        <time>2014-02-16T10:07:42Z</time>
      </trkpt>
      <trkpt lat="43.79272" lon="5.21027">
        <ele>536.7</ele>
        <time>2014-02-16T10:07:58Z</time>
      </trkpt>
      <trkpt lat="43.79274" lon="5.21052">
        <ele>539.2</ele>
        <time>2014-02-16T10:08:27Z</time>
      </trkpt>
      <trkpt lat="43.79267" lon="5.2106">
        <ele>539.6</ele>
        <time>2014-02-16T10:08:38Z</time>
      </trkpt>
      <trkpt lat="43.7926" lon="5.21069">
        <ele>540.1</ele>
        <time>2014-02-16T10:08:51Z</time>
      </trkpt>
      <trkpt lat="43.79256" lon="5.21082">
        <ele>540.8</ele>
        <time>2014-02-16T10:09:08Z</time>
      </trkpt>
      <trkpt lat="43.79257" lon="5.21108">
        <ele>542.8</ele>
        <time>2014-02-16T10:09:32Z</time>
      </trkpt>
      <trkpt lat="43.79255" lon="5.21121">
        <ele>544.8</ele>
        <time>2014-02-16T10:09:43Z</time>
      </trkpt>
      <trkpt lat="43.79252" lon="5.21133">
        <ele>544.8</ele>
        <time>2014-02-16T10:09:54Z</time>
      </trkpt>
      <trkpt lat="43.79249" lon="5.21145">
        <ele>546.9</ele>
        <time>2014-02-16T10:10:07Z</time>
      </trkpt>
      <trkpt lat="43.79253" lon="5.21156">
        <ele>547.3</ele>
        <time>2014-02-16T10:10:22Z</time>
      </trkpt>
      <trkpt lat="43.79257" lon="5.21181">
        <ele>549.8</ele>
        <time>2014-02-16T10:10:49Z</time>
      </trkpt>
      <trkpt lat="43.7926" lon="5.21193">
        <ele>552.1</ele>
        <time>2014-02-16T10:11:00Z</time>
      </trkpt>
      <trkpt lat="43.79259" lon="5.21207">
        <ele>552.7</ele>
        <time>2014-02-16T10:11:09Z</time>
      </trkpt>
      <trkpt lat="43.79259" lon="5.2122">
        <ele>552.8</ele>
        <time>2014-02-16T10:11:19Z</time>
      </trkpt>
      <trkpt lat="43.79259" lon="5.21232">
        <ele>554.2</ele>
        <time>2014-02-16T10:11:29Z</time>
      </trkpt>
      <trkpt lat="43.79256" lon="5.21258">
        <ele>557.2</ele>
        <time>2014-02-16T10:11:46Z</time>
      </trkpt>
      <trkpt lat="43.7925" lon="5.21269">
        <ele>558.3</ele>
        <time>2014-02-16T10:11:59Z</time>
      </trkpt>
      <trkpt lat="43.79244" lon="5.21278">
        <ele>560.1</ele>
        <time>2014-02-16T10:12:23Z</time>
      </trkpt>
      <trkpt lat="43.79243" lon="5.21291">
        <ele>560.5</ele>
        <time>2014-02-16T10:12:40Z</time>
      </trkpt>
      <trkpt lat="43.79227" lon="5.21304">
        <ele>564.6</ele>
        <time>2014-02-16T10:13:20Z</time>
      </trkpt>
      <trkpt lat="43.7922" lon="5.21312">
        <ele>567.6</ele>
        <time>2014-02-16T10:13:45Z</time>
      </trkpt>
      <trkpt lat="43.79226" lon="5.21333">
        <ele>571.3</ele>
        <time>2014-02-16T10:14:49Z</time>
      </trkpt>
      <trkpt lat="43.79234" lon="5.21356">
        <ele>581</ele>
        <time>2014-02-16T10:15:38Z</time>
      </trkpt>
      <trkpt lat="43.79239" lon="5.21367">
        <ele>583</ele>
        <time>2014-02-16T10:16:00Z</time>
      </trkpt>
      <trkpt lat="43.79246" lon="5.21391">
        <ele>587.7</ele>
        <time>2014-02-16T10:16:22Z</time>
      </trkpt>
      <trkpt lat="43.79251" lon="5.21402">
        <ele>589.9</ele>
        <time>2014-02-16T10:16:34Z</time>
      </trkpt>
      <trkpt lat="43.79254" lon="5.21414">
        <ele>592.1</ele>
        <time>2014-02-16T10:16:47Z</time>
      </trkpt>
      <trkpt lat="43.79259" lon="5.21425">
        <ele>593.9</ele>
        <time>2014-02-16T10:17:01Z</time>
      </trkpt>
      <trkpt lat="43.79258" lon="5.21439">
        <ele>597</ele>
        <time>2014-02-16T10:17:13Z</time>
      </trkpt>
      <trkpt lat="43.79272" lon="5.21457">
        <ele>601.1</ele>
        <time>2014-02-16T10:17:42Z</time>
      </trkpt>
      <trkpt lat="43.79275" lon="5.21469">
        <ele>604.5</ele>
        <time>2014-02-16T10:18:03Z</time>
      </trkpt>
      <trkpt lat="43.79278" lon="5.21481">
        <ele>609.1</ele>
        <time>2014-02-16T10:18:22Z</time>
      </trkpt>
      <trkpt lat="43.79275" lon="5.21507">
        <ele>615.2</ele>
        <time>2014-02-16T10:18:58Z</time>
      </trkpt>
      <trkpt lat="43.79278" lon="5.2152">
        <ele>614.6</ele>
        <time>2014-02-16T10:19:16Z</time>
      </trkpt>
      <trkpt lat="43.79281" lon="5.21532">
        <ele>612.3</ele>
        <time>2014-02-16T10:19:24Z</time>
      </trkpt>
      <trkpt lat="43.79278" lon="5.21559">
        <ele>618.7</ele>
        <time>2014-02-16T10:19:47Z</time>
      </trkpt>
      <trkpt lat="43.79276" lon="5.21572">
        <ele>621.8</ele>
        <time>2014-02-16T10:20:00Z</time>
      </trkpt>
      <trkpt lat="43.79278" lon="5.21585">
        <ele>623.7</ele>
        <time>2014-02-16T10:20:09Z</time>
      </trkpt>
      <trkpt lat="43.7928" lon="5.21597">
        <ele>625.8</ele>
        <time>2014-02-16T10:20:20Z</time>
      </trkpt>
      <trkpt lat="43.79279" lon="5.2161">
        <ele>627.4</ele>
        <time>2014-02-16T10:20:30Z</time>
      </trkpt>
      <trkpt lat="43.79266" lon="5.21626">
        <ele>630.5</ele>
        <time>2014-02-16T10:21:20Z</time>
      </trkpt>
      <trkpt lat="43.79264" lon="5.21614">
        <ele>629</ele>
        <time>2014-02-16T10:24:03Z</time>
      </trkpt>
      <trkpt lat="43.79275" lon="5.21589">
        <ele>625</ele>
        <time>2014-02-16T10:32:51Z</time>
      </trkpt>
      <trkpt lat="43.79274" lon="5.21575">
        <ele>623.6</ele>
        <time>2014-02-16T10:33:04Z</time>
      </trkpt>
      <trkpt lat="43.79276" lon="5.21551">
        <ele>619.6</ele>
        <time>2014-02-16T10:33:34Z</time>
      </trkpt>
      <trkpt lat="43.79279" lon="5.21539">
        <ele>616.4</ele>
        <time>2014-02-16T10:33:46Z</time>
      </trkpt>
      <trkpt lat="43.79279" lon="5.21526">
        <ele>615.1</ele>
        <time>2014-02-16T10:33:59Z</time>
      </trkpt>
      <trkpt lat="43.79277" lon="5.21514">
        <ele>615.3</ele>
        <time>2014-02-16T10:34:28Z</time>
      </trkpt>
      <trkpt lat="43.79278" lon="5.21488">
        <ele>611.5</ele>
        <time>2014-02-16T10:35:00Z</time>
      </trkpt>
      <trkpt lat="43.79278" lon="5.21476">
        <ele>608.6</ele>
        <time>2014-02-16T10:35:22Z</time>
      </trkpt>
      <trkpt lat="43.79278" lon="5.21463">
        <ele>604.9</ele>
        <time>2014-02-16T10:35:57Z</time>
      </trkpt>
      <trkpt lat="43.79262" lon="5.21448">
        <ele>599.4</ele>
        <time>2014-02-16T10:36:30Z</time>
      </trkpt>
      <trkpt lat="43.79263" lon="5.21435">
        <ele>596</ele>
        <time>2014-02-16T10:36:43Z</time>
      </trkpt>
      <trkpt lat="43.79258" lon="5.21424">
        <ele>594.2</ele>
        <time>2014-02-16T10:36:58Z</time>
      </trkpt>
      <trkpt lat="43.79249" lon="5.21403">
        <ele>588.4</ele>
        <time>2014-02-16T10:37:30Z</time>
      </trkpt>
      <trkpt lat="43.79243" lon="5.21392">
        <ele>585.6</ele>
        <time>2014-02-16T10:37:43Z</time>
      </trkpt>
      <trkpt lat="43.79244" lon="5.21379">
        <ele>583.1</ele>
        <time>2014-02-16T10:38:02Z</time>
      </trkpt>
      <trkpt lat="43.79236" lon="5.21356">
        <ele>579.6</ele>
        <time>2014-02-16T10:38:31Z</time>
      </trkpt>
      <trkpt lat="43.79232" lon="5.21344">
        <ele>576.8</ele>
        <time>2014-02-16T10:38:52Z</time>
      </trkpt>
      <trkpt lat="43.79228" lon="5.21333">
        <ele>571.1</ele>
        <time>2014-02-16T10:39:52Z</time>
      </trkpt>
      <trkpt lat="43.79219" lon="5.21311">
        <ele>565.8</ele>
        <time>2014-02-16T10:40:45Z</time>
      </trkpt>
      <trkpt lat="43.79213" lon="5.213">
        <ele>563.6</ele>
        <time>2014-02-16T10:41:09Z</time>
      </trkpt>
      <trkpt lat="43.79201" lon="5.2128">
        <ele>562.2</ele>
        <time>2014-02-16T10:41:28Z</time>
      </trkpt>
      <trkpt lat="43.79199" lon="5.21267">
        <ele>565.5</ele>
        <time>2014-02-16T10:41:47Z</time>
      </trkpt>
      <trkpt lat="43.79197" lon="5.21255">
        <ele>569.7</ele>
        <time>2014-02-16T10:42:19Z</time>
      </trkpt>
      <trkpt lat="43.79191" lon="5.21232">
        <ele>577.9</ele>
        <time>2014-02-16T10:43:13Z</time>
      </trkpt>
      <trkpt lat="43.79185" lon="5.21222">
        <ele>581</ele>
        <time>2014-02-16T10:44:15Z</time>
      </trkpt>
      <trkpt lat="43.79179" lon="5.21198">
        <ele>586.1</ele>
        <time>2014-02-16T10:45:02Z</time>
      </trkpt>
      <trkpt lat="43.7917" lon="5.21192">
        <ele>586.7</ele>
        <time>2014-02-16T10:45:33Z</time>
      </trkpt>
      <trkpt lat="43.79158" lon="5.21172">
        <ele>591.5</ele>
        <time>2014-02-16T10:45:58Z</time>
      </trkpt>
      <trkpt lat="43.79156" lon="5.21159">
        <ele>591.1</ele>
        <time>2014-02-16T10:46:11Z</time>
      </trkpt>
      <trkpt lat="43.79155" lon="5.21146">
        <ele>590.7</ele>
        <time>2014-02-16T10:46:26Z</time>
      </trkpt>
      <trkpt lat="43.79156" lon="5.21133">
        <ele>591</ele>
        <time>2014-02-16T10:46:36Z</time>
      </trkpt>
      <trkpt lat="43.79158" lon="5.21107">
        <ele>591</ele>
        <time>2014-02-16T10:47:04Z</time>
      </trkpt>
      <trkpt lat="43.79156" lon="5.21094">
        <ele>591.7</ele>
        <time>2014-02-16T10:47:13Z</time>
      </trkpt>
      <trkpt lat="43.79153" lon="5.21082">
        <ele>593.3</ele>
        <time>2014-02-16T10:47:21Z</time>
      </trkpt>
      <trkpt lat="43.79149" lon="5.21071">
        <ele>593.1</ele>
        <time>2014-02-16T10:47:30Z</time>
      </trkpt>
      <trkpt lat="43.79148" lon="5.21057">
        <ele>591.9</ele>
        <time>2014-02-16T10:47:39Z</time>
      </trkpt>
      <trkpt lat="43.79152" lon="5.21034">
        <ele>591.7</ele>
        <time>2014-02-16T10:48:04Z</time>
      </trkpt>
      <trkpt lat="43.79154" lon="5.2102">
        <ele>589.9</ele>
        <time>2014-02-16T10:48:25Z</time>
      </trkpt>
      <trkpt lat="43.79145" lon="5.21018">
        <ele>591.4</ele>
        <time>2014-02-16T10:49:08Z</time>
      </trkpt>
      <trkpt lat="43.79126" lon="5.21015">
        <ele>593.5</ele>
        <time>2014-02-16T10:49:33Z</time>
      </trkpt>
      <trkpt lat="43.79118" lon="5.21022">
        <ele>594.4</ele>
        <time>2014-02-16T10:49:44Z</time>
      </trkpt>
      <trkpt lat="43.79109" lon="5.2102">
        <ele>594.8</ele>
        <time>2014-02-16T10:51:05Z</time>
      </trkpt>
      <trkpt lat="43.79094" lon="5.20988">
        <ele>590</ele>
        <time>2014-02-16T10:52:36Z</time>
      </trkpt>
      <trkpt lat="43.79088" lon="5.20978">
        <ele>588.6</ele>
        <time>2014-02-16T10:52:47Z</time>
      </trkpt>
      <trkpt lat="43.79085" lon="5.20965">
        <ele>586.4</ele>
        <time>2014-02-16T10:52:59Z</time>
      </trkpt>
      <trkpt lat="43.79084" lon="5.20952">
        <ele>585.4</ele>
        <time>2014-02-16T10:53:08Z</time>
      </trkpt>
      <trkpt lat="43.79082" lon="5.2094">
        <ele>585</ele>
        <time>2014-02-16T10:53:16Z</time>
      </trkpt>
      <trkpt lat="43.79067" lon="5.20924">
        <ele>580.9</ele>
        <time>2014-02-16T10:53:39Z</time>
      </trkpt>
      <trkpt lat="43.7906" lon="5.20917">
        <ele>577.7</ele>
        <time>2014-02-16T10:53:51Z</time>
      </trkpt>
      <trkpt lat="43.79054" lon="5.20907">
        <ele>574.3</ele>
        <time>2014-02-16T10:54:11Z</time>
      </trkpt>
      <trkpt lat="43.79047" lon="5.20899">
        <ele>573.2</ele>
        <time>2014-02-16T10:54:21Z</time>
      </trkpt>
      <trkpt lat="43.79028" lon="5.20889">
        <ele>569.1</ele>
        <time>2014-02-16T10:54:45Z</time>
      </trkpt>
      <trkpt lat="43.79022" lon="5.2088">
        <ele>569.2</ele>
        <time>2014-02-16T10:55:05Z</time>
      </trkpt>
      <trkpt lat="43.79013" lon="5.20878">
        <ele>566.6</ele>
        <time>2014-02-16T10:55:13Z</time>
      </trkpt>
      <trkpt lat="43.79004" lon="5.20873">
        <ele>566.9</ele>
        <time>2014-02-16T10:55:24Z</time>
      </trkpt>
      <trkpt lat="43.78986" lon="5.20875">
        <ele>565.7</ele>
        <time>2014-02-16T10:55:48Z</time>
      </trkpt>
      <trkpt lat="43.78977" lon="5.20873">
        <ele>564.9</ele>
        <time>2014-02-16T10:55:58Z</time>
      </trkpt>
      <trkpt lat="43.78967" lon="5.20874">
        <ele>565</ele>
        <time>2014-02-16T10:56:09Z</time>
      </trkpt>
      <trkpt lat="43.78958" lon="5.20874">
        <ele>562.6</ele>
        <time>2014-02-16T10:56:20Z</time>
      </trkpt>
      <trkpt lat="43.78949" lon="5.20876">
        <ele>561.1</ele>
        <time>2014-02-16T10:56:32Z</time>
      </trkpt>
      <trkpt lat="43.78932" lon="5.2088">
        <ele>560.3</ele>
        <time>2014-02-16T10:57:05Z</time>
      </trkpt>
      <trkpt lat="43.78922" lon="5.20881">
        <ele>560.8</ele>
        <time>2014-02-16T10:57:27Z</time>
      </trkpt>
      <trkpt lat="43.78915" lon="5.2089">
        <ele>560.6</ele>
        <time>2014-02-16T10:57:51Z</time>
      </trkpt>
      <trkpt lat="43.78897" lon="5.20896">
        <ele>560.4</ele>
        <time>2014-02-16T10:58:32Z</time>
      </trkpt>
      <trkpt lat="43.78891" lon="5.20905">
        <ele>560</ele>
        <time>2014-02-16T10:59:15Z</time>
      </trkpt>
      <trkpt lat="43.78875" lon="5.20917">
        <ele>559.3</ele>
        <time>2014-02-16T11:01:17Z</time>
      </trkpt>
      <trkpt lat="43.78865" lon="5.20939">
        <ele>555.4</ele>
        <time>2014-02-16T11:02:17Z</time>
      </trkpt>
      <trkpt lat="43.78859" lon="5.20949">
        <ele>552.9</ele>
        <time>2014-02-16T11:02:32Z</time>
      </trkpt>
      <trkpt lat="43.78846" lon="5.20966">
        <ele>546.8</ele>
        <time>2014-02-16T11:03:10Z</time>
      </trkpt>
      <trkpt lat="43.78837" lon="5.20973">
        <ele>544.2</ele>
        <time>2014-02-16T11:03:25Z</time>
      </trkpt>
      <trkpt lat="43.7883" lon="5.20981">
        <ele>542.9</ele>
        <time>2014-02-16T11:03:52Z</time>
      </trkpt>
      <trkpt lat="43.78813" lon="5.20985">
        <ele>538</ele>
        <time>2014-02-16T11:04:38Z</time>
      </trkpt>
      <trkpt lat="43.78805" lon="5.20992">
        <ele>536.5</ele>
        <time>2014-02-16T11:04:51Z</time>
      </trkpt>
      <trkpt lat="43.78796" lon="5.20998">
        <ele>534.8</ele>
        <time>2014-02-16T11:05:10Z</time>
      </trkpt>
      <trkpt lat="43.78779" lon="5.21005">
        <ele>528.2</ele>
        <time>2014-02-16T11:05:44Z</time>
      </trkpt>
      <trkpt lat="43.7877" lon="5.21003">
        <ele>526.1</ele>
        <time>2014-02-16T11:05:56Z</time>
      </trkpt>
      <trkpt lat="43.78761" lon="5.21">
        <ele>524.5</ele>
        <time>2014-02-16T11:06:16Z</time>
      </trkpt>
      <trkpt lat="43.78742" lon="5.20995">
        <ele>522.3</ele>
        <time>2014-02-16T11:06:35Z</time>
      </trkpt>
      <trkpt lat="43.78734" lon="5.20991">
        <ele>519.9</ele>
        <time>2014-02-16T11:06:48Z</time>
      </trkpt>
      <trkpt lat="43.78725" lon="5.20992">
        <ele>517.3</ele>
        <time>2014-02-16T11:07:01Z</time>
      </trkpt>
      <trkpt lat="43.78716" lon="5.20998">
        <ele>515.7</ele>
        <time>2014-02-16T11:07:19Z</time>
      </trkpt>
      <trkpt lat="43.78701" lon="5.20998">
        <ele>511.7</ele>
        <time>2014-02-16T11:07:50Z</time>
      </trkpt>
      <trkpt lat="43.78695" lon="5.20988">
        <ele>508.9</ele>
        <time>2014-02-16T11:08:01Z</time>
      </trkpt>
      <trkpt lat="43.78688" lon="5.20981">
        <ele>506.9</ele>
        <time>2014-02-16T11:08:12Z</time>
      </trkpt>
      <trkpt lat="43.78681" lon="5.20972">
        <ele>504.7</ele>
        <time>2014-02-16T11:08:28Z</time>
      </trkpt>
      <trkpt lat="43.78669" lon="5.20952">
        <ele>500.5</ele>
        <time>2014-02-16T11:09:13Z</time>
      </trkpt>
      <trkpt lat="43.78661" lon="5.20946">
        <ele>498.1</ele>
        <time>2014-02-16T11:09:37Z</time>
      </trkpt>
      <trkpt lat="43.78644" lon="5.2094">
        <ele>494.1</ele>
        <time>2014-02-16T11:10:40Z</time>
      </trkpt>
      <trkpt lat="43.78625" lon="5.20935">
        <ele>489</ele>
        <time>2014-02-16T11:11:19Z</time>
      </trkpt>
      <trkpt lat="43.78616" lon="5.20935">
        <ele>487.3</ele>
        <time>2014-02-16T11:11:29Z</time>
      </trkpt>
      <trkpt lat="43.78608" lon="5.2093">
        <ele>484.5</ele>
        <time>2014-02-16T11:11:39Z</time>
      </trkpt>
      <trkpt lat="43.78598" lon="5.20929">
        <ele>483.2</ele>
        <time>2014-02-16T11:11:48Z</time>
      </trkpt>
      <trkpt lat="43.7858" lon="5.20923">
        <ele>479.1</ele>
        <time>2014-02-16T11:12:13Z</time>
      </trkpt>
      <trkpt lat="43.78572" lon="5.20919">
        <ele>478.7</ele>
        <time>2014-02-16T11:12:25Z</time>
      </trkpt>
      <trkpt lat="43.78563" lon="5.20916">
        <ele>476.8</ele>
        <time>2014-02-16T11:12:34Z</time>
      </trkpt>
      <trkpt lat="43.78554" lon="5.20912">
        <ele>475.3</ele>
        <time>2014-02-16T11:12:43Z</time>
      </trkpt>
      <trkpt lat="43.78545" lon="5.20908">
        <ele>473.9</ele>
        <time>2014-02-16T11:12:53Z</time>
      </trkpt>
      <trkpt lat="43.78526" lon="5.20906">
        <ele>470.2</ele>
        <time>2014-02-16T11:13:13Z</time>
      </trkpt>
      <trkpt lat="43.78516" lon="5.20906">
        <ele>468.8</ele>
        <time>2014-02-16T11:13:25Z</time>
      </trkpt>
      <trkpt lat="43.78507" lon="5.20906">
        <ele>468.5</ele>
        <time>2014-02-16T11:13:34Z</time>
      </trkpt>
      <trkpt lat="43.78498" lon="5.20906">
        <ele>468</ele>
        <time>2014-02-16T11:13:44Z</time>
      </trkpt>
      <trkpt lat="43.78489" lon="5.20907">
        <ele>468.5</ele>
        <time>2014-02-16T11:13:52Z</time>
      </trkpt>
      <trkpt lat="43.7848" lon="5.20914">
        <ele>468.9</ele>
        <time>2014-02-16T11:14:02Z</time>
      </trkpt>
      <trkpt lat="43.78462" lon="5.20923">
        <ele>469.8</ele>
        <time>2014-02-16T11:14:21Z</time>
      </trkpt>
      <trkpt lat="43.78453" lon="5.20927">
        <ele>470.7</ele>
        <time>2014-02-16T11:14:31Z</time>
      </trkpt>
      <trkpt lat="43.78444" lon="5.20931">
        <ele>470.8</ele>
        <time>2014-02-16T11:14:40Z</time>
      </trkpt>
      <trkpt lat="43.78436" lon="5.20938">
        <ele>469.9</ele>
        <time>2014-02-16T11:14:50Z</time>
      </trkpt>
      <trkpt lat="43.78427" lon="5.20941">
        <ele>471.3</ele>
        <time>2014-02-16T11:15:04Z</time>
      </trkpt>
      <trkpt lat="43.78409" lon="5.20949">
        <ele>470.9</ele>
        <time>2014-02-16T11:15:32Z</time>
      </trkpt>
      <trkpt lat="43.78403" lon="5.20959">
        <ele>470.5</ele>
        <time>2014-02-16T11:15:40Z</time>
      </trkpt>
      <trkpt lat="43.78397" lon="5.2097">
        <ele>469</ele>
        <time>2014-02-16T11:15:49Z</time>
      </trkpt>
      <trkpt lat="43.78388" lon="5.20975">
        <ele>468.8</ele>
        <time>2014-02-16T11:16:01Z</time>
      </trkpt>
      <trkpt lat="43.78379" lon="5.20975">
        <ele>467.9</ele>
        <time>2014-02-16T11:16:30Z</time>
      </trkpt>
      <trkpt lat="43.78373" lon="5.20981">
        <ele>466.4</ele>
        <time>2014-02-16T11:20:03Z</time>
      </trkpt>
      <trkpt lat="43.78354" lon="5.20978">
        <ele>465.7</ele>
        <time>2014-02-16T12:20:26Z</time>
      </trkpt>
      <trkpt lat="43.78345" lon="5.20975">
        <ele>463.2</ele>
        <time>2014-02-16T12:20:37Z</time>
      </trkpt>
      <trkpt lat="43.78336" lon="5.20973">
        <ele>461.1</ele>
        <time>2014-02-16T12:21:05Z</time>
      </trkpt>
      <trkpt lat="43.78317" lon="5.20969">
        <ele>458.3</ele>
        <time>2014-02-16T12:21:24Z</time>
      </trkpt>
      <trkpt lat="43.78308" lon="5.20966">
        <ele>455.5</ele>
        <time>2014-02-16T12:21:34Z</time>
      </trkpt>
      <trkpt lat="43.78298" lon="5.20963">
        <ele>454.7</ele>
        <time>2014-02-16T12:21:45Z</time>
      </trkpt>
      <trkpt lat="43.78289" lon="5.20959">
        <ele>451.4</ele>
        <time>2014-02-16T12:21:56Z</time>
      </trkpt>
      <trkpt lat="43.7828" lon="5.20955">
        <ele>451.2</ele>
        <time>2014-02-16T12:22:05Z</time>
      </trkpt>
      <trkpt lat="43.78273" lon="5.20948">
        <ele>449.5</ele>
        <time>2014-02-16T12:22:14Z</time>
      </trkpt>
      <trkpt lat="43.78254" lon="5.20942">
        <ele>451.4</ele>
        <time>2014-02-16T12:22:36Z</time>
      </trkpt>
      <trkpt lat="43.78245" lon="5.2094">
        <ele>451.8</ele>
        <time>2014-02-16T12:22:45Z</time>
      </trkpt>
      <trkpt lat="43.78236" lon="5.20939">
        <ele>453</ele>
        <time>2014-02-16T12:22:55Z</time>
      </trkpt>
      <trkpt lat="43.78226" lon="5.20941">
        <ele>451.9</ele>
        <time>2014-02-16T12:23:06Z</time>
      </trkpt>
      <trkpt lat="43.78217" lon="5.20943">
        <ele>451.1</ele>
        <time>2014-02-16T12:23:17Z</time>
      </trkpt>
      <trkpt lat="43.78198" lon="5.20947">
        <ele>447.5</ele>
        <time>2014-02-16T12:23:40Z</time>
      </trkpt>
      <trkpt lat="43.78189" lon="5.2095">
        <ele>445.2</ele>
        <time>2014-02-16T12:23:52Z</time>
      </trkpt>
      <trkpt lat="43.78181" lon="5.20956">
        <ele>446</ele>
        <time>2014-02-16T12:24:04Z</time>
      </trkpt>
      <trkpt lat="43.78173" lon="5.20965">
        <ele>445.9</ele>
        <time>2014-02-16T12:24:12Z</time>
      </trkpt>
      <trkpt lat="43.78164" lon="5.20969">
        <ele>446.2</ele>
        <time>2014-02-16T12:24:21Z</time>
      </trkpt>
      <trkpt lat="43.78147" lon="5.20982">
        <ele>447.1</ele>
        <time>2014-02-16T12:24:37Z</time>
      </trkpt>
      <trkpt lat="43.7814" lon="5.2099">
        <ele>447.4</ele>
        <time>2014-02-16T12:24:47Z</time>
      </trkpt>
      <trkpt lat="43.78131" lon="5.20992">
        <ele>447.6</ele>
        <time>2014-02-16T12:24:56Z</time>
      </trkpt>
      <trkpt lat="43.78122" lon="5.20989">
        <ele>447.3</ele>
        <time>2014-02-16T12:25:06Z</time>
      </trkpt>
      <trkpt lat="43.78113" lon="5.20986">
        <ele>445.1</ele>
        <time>2014-02-16T12:25:18Z</time>
      </trkpt>
      <trkpt lat="43.78105" lon="5.20978">
        <ele>444.8</ele>
        <time>2014-02-16T12:25:26Z</time>
      </trkpt>
      <trkpt lat="43.78085" lon="5.20979">
        <ele>442.5</ele>
        <time>2014-02-16T12:25:43Z</time>
      </trkpt>
      <trkpt lat="43.78076" lon="5.20977">
        <ele>443.3</ele>
        <time>2014-02-16T12:25:53Z</time>
      </trkpt>
      <trkpt lat="43.78067" lon="5.20978">
        <ele>443.4</ele>
        <time>2014-02-16T12:26:01Z</time>
      </trkpt>
      <trkpt lat="43.78057" lon="5.20979">
        <ele>443.3</ele>
        <time>2014-02-16T12:26:10Z</time>
      </trkpt>
      <trkpt lat="43.78048" lon="5.20979">
        <ele>441.5</ele>
        <time>2014-02-16T12:29:06Z</time>
      </trkpt>
      <trkpt lat="43.78029" lon="5.20975">
        <ele>444.1</ele>
        <time>2014-02-16T12:29:28Z</time>
      </trkpt>
      <trkpt lat="43.7802" lon="5.20975">
        <ele>443.9</ele>
        <time>2014-02-16T12:29:36Z</time>
      </trkpt>
      <trkpt lat="43.78011" lon="5.20969">
        <ele>444.1</ele>
        <time>2014-02-16T12:29:48Z</time>
      </trkpt>
      <trkpt lat="43.78002" lon="5.20964">
        <ele>441.9</ele>
        <time>2014-02-16T12:29:58Z</time>
      </trkpt>
      <trkpt lat="43.77994" lon="5.20957">
        <ele>439.4</ele>
        <time>2014-02-16T12:30:05Z</time>
      </trkpt>
      <trkpt lat="43.77985" lon="5.20951">
        <ele>438</ele>
        <time>2014-02-16T12:30:12Z</time>
      </trkpt>
      <trkpt lat="43.77969" lon="5.20938">
        <ele>433.4</ele>
        <time>2014-02-16T12:30:28Z</time>
      </trkpt>
      <trkpt lat="43.7796" lon="5.20932">
        <ele>430.7</ele>
        <time>2014-02-16T12:30:37Z</time>
      </trkpt>
      <trkpt lat="43.77951" lon="5.20931">
        <ele>428.4</ele>
        <time>2014-02-16T12:30:44Z</time>
      </trkpt>
      <trkpt lat="43.77942" lon="5.20933">
        <ele>426.7</ele>
        <time>2014-02-16T12:30:53Z</time>
      </trkpt>
      <trkpt lat="43.77933" lon="5.20932">
        <ele>423.6</ele>
        <time>2014-02-16T12:31:02Z</time>
      </trkpt>
      <trkpt lat="43.77924" lon="5.20929">
        <ele>422.3</ele>
        <time>2014-02-16T12:31:11Z</time>
      </trkpt>
      <trkpt lat="43.77914" lon="5.20927">
        <ele>419.3</ele>
        <time>2014-02-16T12:31:21Z</time>
      </trkpt>
      <trkpt lat="43.77896" lon="5.2092">
        <ele>415.7</ele>
        <time>2014-02-16T12:31:40Z</time>
      </trkpt>
      <trkpt lat="43.77887" lon="5.20916">
        <ele>412.7</ele>
        <time>2014-02-16T12:31:49Z</time>
      </trkpt>
      <trkpt lat="43.77879" lon="5.20908">
        <ele>411</ele>
        <time>2014-02-16T12:32:00Z</time>
      </trkpt>
      <trkpt lat="43.7787" lon="5.20906">
        <ele>407.7</ele>
        <time>2014-02-16T12:32:10Z</time>
      </trkpt>
      <trkpt lat="43.77861" lon="5.20902">
        <ele>406.3</ele>
        <time>2014-02-16T12:32:36Z</time>
      </trkpt>
      <trkpt lat="43.77844" lon="5.20904">
        <ele>401.9</ele>
        <time>2014-02-16T12:32:56Z</time>
      </trkpt>
      <trkpt lat="43.77834" lon="5.20903">
        <ele>399.4</ele>
        <time>2014-02-16T12:33:06Z</time>
      </trkpt>
      <trkpt lat="43.77825" lon="5.20904">
        <ele>396.7</ele>
        <time>2014-02-16T12:33:17Z</time>
      </trkpt>
      <trkpt lat="43.77815" lon="5.20908">
        <ele>395.5</ele>
        <time>2014-02-16T12:33:25Z</time>
      </trkpt>
      <trkpt lat="43.77806" lon="5.20914">
        <ele>393.1</ele>
        <time>2014-02-16T12:33:34Z</time>
      </trkpt>
      <trkpt lat="43.77798" lon="5.20921">
        <ele>392.8</ele>
        <time>2014-02-16T12:33:44Z</time>
      </trkpt>
      <trkpt lat="43.77779" lon="5.20927">
        <ele>389.6</ele>
        <time>2014-02-16T12:33:59Z</time>
      </trkpt>
      <trkpt lat="43.77769" lon="5.2093">
        <ele>388.7</ele>
        <time>2014-02-16T12:34:07Z</time>
      </trkpt>
      <trkpt lat="43.77761" lon="5.20934">
        <ele>388</ele>
        <time>2014-02-16T12:34:16Z</time>
      </trkpt>
      <trkpt lat="43.77751" lon="5.20939">
        <ele>386.6</ele>
        <time>2014-02-16T12:34:25Z</time>
      </trkpt>
      <trkpt lat="43.77743" lon="5.20943">
        <ele>386.1</ele>
        <time>2014-02-16T12:34:33Z</time>
      </trkpt>
      <trkpt lat="43.77734" lon="5.20948">
        <ele>385.6</ele>
        <time>2014-02-16T12:34:42Z</time>
      </trkpt>
      <trkpt lat="43.77725" lon="5.20951">
        <ele>383.8</ele>
        <time>2014-02-16T12:34:50Z</time>
      </trkpt>
      <trkpt lat="43.77708" lon="5.20964">
        <ele>382.7</ele>
        <time>2014-02-16T12:35:09Z</time>
      </trkpt>
      <trkpt lat="43.77699" lon="5.20967">
        <ele>382.7</ele>
        <time>2014-02-16T12:35:19Z</time>
      </trkpt>
      <trkpt lat="43.7769" lon="5.20971">
        <ele>381.8</ele>
        <time>2014-02-16T12:35:31Z</time>
      </trkpt>
      <trkpt lat="43.77681" lon="5.20976">
        <ele>382.5</ele>
        <time>2014-02-16T12:35:42Z</time>
      </trkpt>
      <trkpt lat="43.77674" lon="5.20982">
        <ele>382.6</ele>
        <time>2014-02-16T12:37:59Z</time>
      </trkpt>
      <trkpt lat="43.77655" lon="5.20989">
        <ele>385</ele>
        <time>2014-02-16T12:38:48Z</time>
      </trkpt>
      <trkpt lat="43.77645" lon="5.20987">
        <ele>385.4</ele>
        <time>2014-02-16T12:38:56Z</time>
      </trkpt>
      <trkpt lat="43.77635" lon="5.20987">
        <ele>385.9</ele>
        <time>2014-02-16T12:39:05Z</time>
      </trkpt>
      <trkpt lat="43.77617" lon="5.20989">
        <ele>388.7</ele>
        <time>2014-02-16T12:39:34Z</time>
      </trkpt>
      <trkpt lat="43.77609" lon="5.20996">
        <ele>388.1</ele>
        <time>2014-02-16T12:39:45Z</time>
      </trkpt>
      <trkpt lat="43.77601" lon="5.21004">
        <ele>387.7</ele>
        <time>2014-02-16T12:39:58Z</time>
      </trkpt>
      <trkpt lat="43.77592" lon="5.21007">
        <ele>386.3</ele>
        <time>2014-02-16T12:40:07Z</time>
      </trkpt>
      <trkpt lat="43.77574" lon="5.21019">
        <ele>382.8</ele>
        <time>2014-02-16T12:40:25Z</time>
      </trkpt>
      <trkpt lat="43.77564" lon="5.21021">
        <ele>381.9</ele>
        <time>2014-02-16T12:40:34Z</time>
      </trkpt>
      <trkpt lat="43.77555" lon="5.21025">
        <ele>379.4</ele>
        <time>2014-02-16T12:40:44Z</time>
      </trkpt>
      <trkpt lat="43.77547" lon="5.2103">
        <ele>379.2</ele>
        <time>2014-02-16T12:40:54Z</time>
      </trkpt>
      <trkpt lat="43.77541" lon="5.2104">
        <ele>381.7</ele>
        <time>2014-02-16T12:41:03Z</time>
      </trkpt>
      <trkpt lat="43.77532" lon="5.21047">
        <ele>382.7</ele>
        <time>2014-02-16T12:41:13Z</time>
      </trkpt>
      <trkpt lat="43.77517" lon="5.21066">
        <ele>383.3</ele>
        <time>2014-02-16T12:41:30Z</time>
      </trkpt>
      <trkpt lat="43.77508" lon="5.21071">
        <ele>382.6</ele>
        <time>2014-02-16T12:41:38Z</time>
      </trkpt>
      <trkpt lat="43.77499" lon="5.21075">
        <ele>381.2</ele>
        <time>2014-02-16T12:41:46Z</time>
      </trkpt>
      <trkpt lat="43.7749" lon="5.2108">
        <ele>379</ele>
        <time>2014-02-16T12:41:55Z</time>
      </trkpt>
      <trkpt lat="43.77481" lon="5.21085">
        <ele>376.5</ele>
        <time>2014-02-16T12:42:04Z</time>
      </trkpt>
      <trkpt lat="43.77473" lon="5.21092">
        <ele>374.7</ele>
        <time>2014-02-16T12:42:13Z</time>
      </trkpt>
      <trkpt lat="43.77464" lon="5.21097">
        <ele>372.6</ele>
        <time>2014-02-16T12:42:20Z</time>
      </trkpt>
      <trkpt lat="43.77447" lon="5.21107">
        <ele>369.6</ele>
        <time>2014-02-16T12:42:37Z</time>
      </trkpt>
      <trkpt lat="43.77439" lon="5.21114">
        <ele>368.7</ele>
        <time>2014-02-16T12:42:44Z</time>
      </trkpt>
      <trkpt lat="43.77431" lon="5.21121">
        <ele>367.4</ele>
        <time>2014-02-16T12:42:51Z</time>
      </trkpt>
      <trkpt lat="43.77422" lon="5.21127">
        <ele>366.7</ele>
        <time>2014-02-16T12:42:58Z</time>
      </trkpt>
      <trkpt lat="43.77414" lon="5.21133">
        <ele>365.4</ele>
        <time>2014-02-16T12:43:06Z</time>
      </trkpt>
      <trkpt lat="43.77406" lon="5.21142">
        <ele>364.7</ele>
        <time>2014-02-16T12:43:14Z</time>
      </trkpt>
      <trkpt lat="43.77399" lon="5.2115">
        <ele>363.9</ele>
        <time>2014-02-16T12:43:21Z</time>
      </trkpt>
      <trkpt lat="43.77383" lon="5.21164">
        <ele>362.2</ele>
        <time>2014-02-16T12:43:36Z</time>
      </trkpt>
      <trkpt lat="43.77376" lon="5.21174">
        <ele>362.2</ele>
        <time>2014-02-16T12:43:43Z</time>
      </trkpt>
      <trkpt lat="43.77369" lon="5.21182">
        <ele>362</ele>
        <time>2014-02-16T12:43:51Z</time>
      </trkpt>
      <trkpt lat="43.77362" lon="5.2119">
        <ele>359.9</ele>
        <time>2014-02-16T12:44:00Z</time>
      </trkpt>
      <trkpt lat="43.77355" lon="5.21198">
        <ele>361.5</ele>
        <time>2014-02-16T12:44:30Z</time>
      </trkpt>
      <trkpt lat="43.77326" lon="5.21203">
        <ele>357.9</ele>
        <time>2014-02-16T12:46:08Z</time>
      </trkpt>
      <trkpt lat="43.77317" lon="5.21205">
        <ele>356.9</ele>
        <time>2014-02-16T12:46:16Z</time>
      </trkpt>
      <trkpt lat="43.77306" lon="5.21204">
        <ele>356.3</ele>
        <time>2014-02-16T12:46:23Z</time>
      </trkpt>
      <trkpt lat="43.77297" lon="5.21204">
        <ele>355.9</ele>
        <time>2014-02-16T12:46:30Z</time>
      </trkpt>
      <trkpt lat="43.77288" lon="5.21208">
        <ele>354.7</ele>
        <time>2014-02-16T12:46:48Z</time>
      </trkpt>
      <trkpt lat="43.7727" lon="5.21208">
        <ele>348.7</ele>
        <time>2014-02-16T12:47:07Z</time>
      </trkpt>
      <trkpt lat="43.77261" lon="5.21211">
        <ele>344.8</ele>
        <time>2014-02-16T12:47:17Z</time>
      </trkpt>
      <trkpt lat="43.77252" lon="5.21215">
        <ele>344.3</ele>
        <time>2014-02-16T12:47:43Z</time>
      </trkpt>
      <trkpt lat="43.77244" lon="5.21221">
        <ele>340.9</ele>
        <time>2014-02-16T12:51:06Z</time>
      </trkpt>
      <trkpt lat="43.77228" lon="5.21235">
        <ele>335.8</ele>
        <time>2014-02-16T12:51:28Z</time>
      </trkpt>
      <trkpt lat="43.77221" lon="5.21245">
        <ele>333.9</ele>
        <time>2014-02-16T12:51:35Z</time>
      </trkpt>
      <trkpt lat="43.77215" lon="5.21255">
        <ele>331.8</ele>
        <time>2014-02-16T12:51:42Z</time>
      </trkpt>
      <trkpt lat="43.77209" lon="5.21267">
        <ele>331.1</ele>
        <time>2014-02-16T12:51:50Z</time>
      </trkpt>
      <trkpt lat="43.77205" lon="5.2128">
        <ele>329.8</ele>
        <time>2014-02-16T12:51:57Z</time>
      </trkpt>
      <trkpt lat="43.77199" lon="5.21291">
        <ele>329.2</ele>
        <time>2014-02-16T12:52:04Z</time>
      </trkpt>
      <trkpt lat="43.77192" lon="5.21299">
        <ele>325.7</ele>
        <time>2014-02-16T12:52:11Z</time>
      </trkpt>
      <trkpt lat="43.77181" lon="5.2132">
        <ele>322.2</ele>
        <time>2014-02-16T12:52:27Z</time>
      </trkpt>
      <trkpt lat="43.77173" lon="5.21327">
        <ele>322</ele>
        <time>2014-02-16T12:52:39Z</time>
      </trkpt>
      <trkpt lat="43.77164" lon="5.21326">
        <ele>320.1</ele>
        <time>2014-02-16T12:52:47Z</time>
      </trkpt>
      <trkpt lat="43.77154" lon="5.21327">
        <ele>317.7</ele>
        <time>2014-02-16T12:52:56Z</time>
      </trkpt>
      <trkpt lat="43.77145" lon="5.21326">
        <ele>316.1</ele>
        <time>2014-02-16T12:53:05Z</time>
      </trkpt>
      <trkpt lat="43.77135" lon="5.21324">
        <ele>315.5</ele>
        <time>2014-02-16T12:53:14Z</time>
      </trkpt>
      <trkpt lat="43.77117" lon="5.21319">
        <ele>313.2</ele>
        <time>2014-02-16T12:53:30Z</time>
      </trkpt>
      <trkpt lat="43.77107" lon="5.21317">
        <ele>312</ele>
        <time>2014-02-16T12:53:39Z</time>
      </trkpt>
      <trkpt lat="43.77098" lon="5.21316">
        <ele>311.5</ele>
        <time>2014-02-16T12:53:47Z</time>
      </trkpt>
      <trkpt lat="43.77088" lon="5.21313">
        <ele>310.3</ele>
        <time>2014-02-16T12:53:56Z</time>
      </trkpt>
      <trkpt lat="43.77079" lon="5.21311">
        <ele>310.8</ele>
        <time>2014-02-16T12:54:03Z</time>
      </trkpt>
      <trkpt lat="43.7707" lon="5.21309">
        <ele>311</ele>
        <time>2014-02-16T12:54:11Z</time>
      </trkpt>
      <trkpt lat="43.7706" lon="5.21307">
        <ele>311</ele>
        <time>2014-02-16T12:54:20Z</time>
      </trkpt>
      <trkpt lat="43.77041" lon="5.21301">
        <ele>312.9</ele>
        <time>2014-02-16T12:54:39Z</time>
      </trkpt>
      <trkpt lat="43.77032" lon="5.21302">
        <ele>314</ele>
        <time>2014-02-16T12:54:50Z</time>
      </trkpt>
      <trkpt lat="43.77022" lon="5.21304">
        <ele>315.3</ele>
        <time>2014-02-16T12:55:00Z</time>
      </trkpt>
      <trkpt lat="43.77013" lon="5.21303">
        <ele>314.8</ele>
        <time>2014-02-16T12:56:35Z</time>
      </trkpt>
      <trkpt lat="43.76993" lon="5.21276">
        <ele>315.8</ele>
        <time>2014-02-16T12:59:06Z</time>
      </trkpt>
      <trkpt lat="43.76984" lon="5.21271">
        <ele>316.3</ele>
        <time>2014-02-16T12:59:17Z</time>
      </trkpt>
      <trkpt lat="43.76976" lon="5.21267">
        <ele>317.8</ele>
        <time>2014-02-16T12:59:28Z</time>
      </trkpt>
      <trkpt lat="43.76968" lon="5.21258">
        <ele>317.9</ele>
        <time>2014-02-16T12:59:37Z</time>
      </trkpt>
      <trkpt lat="43.76962" lon="5.21249">
        <ele>316.8</ele>
        <time>2014-02-16T12:59:48Z</time>
      </trkpt>
      <trkpt lat="43.76944" lon="5.21242">
        <ele>318.3</ele>
        <time>2014-02-16T13:00:06Z</time>
      </trkpt>
      <trkpt lat="43.76934" lon="5.2124">
        <ele>318.7</ele>
        <time>2014-02-16T13:00:16Z</time>
      </trkpt>
      <trkpt lat="43.76926" lon="5.21237">
        <ele>319.1</ele>
        <time>2014-02-16T13:00:26Z</time>
      </trkpt>
      <trkpt lat="43.76917" lon="5.21231">
        <ele>319.7</ele>
        <time>2014-02-16T13:00:35Z</time>
      </trkpt>
      <trkpt lat="43.7691" lon="5.21221">
        <ele>321</ele>
        <time>2014-02-16T13:00:44Z</time>
      </trkpt>
      <trkpt lat="43.76903" lon="5.21211">
        <ele>320.8</ele>
        <time>2014-02-16T13:00:52Z</time>
      </trkpt>
      <trkpt lat="43.76892" lon="5.21191">
        <ele>320.6</ele>
        <time>2014-02-16T13:01:08Z</time>
      </trkpt>
      <trkpt lat="43.76883" lon="5.21186">
        <ele>321.9</ele>
        <time>2014-02-16T13:01:18Z</time>
      </trkpt>
      <trkpt lat="43.76873" lon="5.21187">
        <ele>321.1</ele>
        <time>2014-02-16T13:01:37Z</time>
      </trkpt>
      <trkpt lat="43.76864" lon="5.21191">
        <ele>321.1</ele>
        <time>2014-02-16T13:01:45Z</time>
      </trkpt>
      <trkpt lat="43.76856" lon="5.21198">
        <ele>323.2</ele>
        <time>2014-02-16T13:01:54Z</time>
      </trkpt>
      <trkpt lat="43.7684" lon="5.21211">
        <ele>326.3</ele>
        <time>2014-02-16T13:02:20Z</time>
      </trkpt>
      <trkpt lat="43.76832" lon="5.21219">
        <ele>326.7</ele>
        <time>2014-02-16T13:02:29Z</time>
      </trkpt>
      <trkpt lat="43.76824" lon="5.21226">
        <ele>328.7</ele>
        <time>2014-02-16T13:02:39Z</time>
      </trkpt>
      <trkpt lat="43.76815" lon="5.21233">
        <ele>330.2</ele>
        <time>2014-02-16T13:02:49Z</time>
      </trkpt>
      <trkpt lat="43.76806" lon="5.2124">
        <ele>331</ele>
        <time>2014-02-16T13:02:59Z</time>
      </trkpt>
      <trkpt lat="43.76789" lon="5.21252">
        <ele>332.3</ele>
        <time>2014-02-16T13:03:18Z</time>
      </trkpt>
      <trkpt lat="43.7678" lon="5.21258">
        <ele>334.1</ele>
        <time>2014-02-16T13:03:29Z</time>
      </trkpt>
      <trkpt lat="43.7677" lon="5.21262">
        <ele>334.9</ele>
        <time>2014-02-16T13:03:38Z</time>
      </trkpt>
      <trkpt lat="43.76761" lon="5.21264">
        <ele>335.6</ele>
        <time>2014-02-16T13:03:46Z</time>
      </trkpt>
      <trkpt lat="43.76751" lon="5.21263">
        <ele>336</ele>
        <time>2014-02-16T13:03:55Z</time>
      </trkpt>
      <trkpt lat="43.76742" lon="5.21261">
        <ele>335.8</ele>
        <time>2014-02-16T13:04:04Z</time>
      </trkpt>
      <trkpt lat="43.76724" lon="5.21262">
        <ele>338.4</ele>
        <time>2014-02-16T13:04:21Z</time>
      </trkpt>
      <trkpt lat="43.76715" lon="5.21264">
        <ele>337.9</ele>
        <time>2014-02-16T13:04:30Z</time>
      </trkpt>
      <trkpt lat="43.76706" lon="5.21266">
        <ele>338.8</ele>
        <time>2014-02-16T13:04:52Z</time>
      </trkpt>
      <trkpt lat="43.76696" lon="5.21269">
        <ele>338.4</ele>
        <time>2014-02-16T13:05:02Z</time>
      </trkpt>
      <trkpt lat="43.76687" lon="5.21272">
        <ele>338.9</ele>
        <time>2014-02-16T13:05:10Z</time>
      </trkpt>
      <trkpt lat="43.7667" lon="5.21279">
        <ele>339.1</ele>
        <time>2014-02-16T13:05:29Z</time>
      </trkpt>
      <trkpt lat="43.76662" lon="5.21285">
        <ele>338.5</ele>
        <time>2014-02-16T13:05:38Z</time>
      </trkpt>
      <trkpt lat="43.76653" lon="5.21293">
        <ele>338.7</ele>
        <time>2014-02-16T13:05:46Z</time>
      </trkpt>
      <trkpt lat="43.76645" lon="5.213">
        <ele>338.3</ele>
        <time>2014-02-16T13:05:54Z</time>
      </trkpt>
      <trkpt lat="43.76635" lon="5.21304">
        <ele>337.3</ele>
        <time>2014-02-16T13:06:02Z</time>
      </trkpt>
      <trkpt lat="43.76627" lon="5.21309">
        <ele>336.7</ele>
        <time>2014-02-16T13:06:11Z</time>
      </trkpt>
      <trkpt lat="43.76612" lon="5.21325">
        <ele>336.7</ele>
        <time>2014-02-16T13:06:29Z</time>
      </trkpt>
      <trkpt lat="43.76603" lon="5.21331">
        <ele>334.6</ele>
        <time>2014-02-16T13:06:40Z</time>
      </trkpt>
      <trkpt lat="43.76594" lon="5.21333">
        <ele>333.4</ele>
        <time>2014-02-16T13:06:48Z</time>
      </trkpt>
      <trkpt lat="43.76585" lon="5.21329">
        <ele>333.6</ele>
        <time>2014-02-16T13:06:56Z</time>
      </trkpt>
      <trkpt lat="43.76577" lon="5.21321">
        <ele>332.6</ele>
        <time>2014-02-16T13:07:04Z</time>
      </trkpt>
      <trkpt lat="43.7657" lon="5.21312">
        <ele>332.6</ele>
        <time>2014-02-16T13:07:12Z</time>
      </trkpt>
      <trkpt lat="43.76554" lon="5.21302">
        <ele>331.5</ele>
        <time>2014-02-16T13:07:30Z</time>
      </trkpt>
      <trkpt lat="43.76544" lon="5.21302">
        <ele>332</ele>
        <time>2014-02-16T13:07:38Z</time>
      </trkpt>
      <trkpt lat="43.76534" lon="5.21302">
        <ele>332.1</ele>
        <time>2014-02-16T13:07:47Z</time>
      </trkpt>
      <trkpt lat="43.76524" lon="5.21303">
        <ele>330.6</ele>
        <time>2014-02-16T13:07:55Z</time>
      </trkpt>
      <trkpt lat="43.76514" lon="5.21304">
        <ele>330.6</ele>
        <time>2014-02-16T13:08:04Z</time>
      </trkpt>
      <trkpt lat="43.76505" lon="5.21308">
        <ele>330.6</ele>
        <time>2014-02-16T13:08:13Z</time>
      </trkpt>
      <trkpt lat="43.76491" lon="5.21326">
        <ele>328.6</ele>
        <time>2014-02-16T13:08:31Z</time>
      </trkpt>
      <trkpt lat="43.76485" lon="5.21335">
        <ele>326.1</ele>
        <time>2014-02-16T13:08:39Z</time>
      </trkpt>
      <trkpt lat="43.76477" lon="5.21343">
        <ele>324.6</ele>
        <time>2014-02-16T13:08:48Z</time>
      </trkpt>
      <trkpt lat="43.76468" lon="5.21347">
        <ele>323.2</ele>
        <time>2014-02-16T13:09:27Z</time>
      </trkpt>
      <trkpt lat="43.7645" lon="5.21356">
        <ele>319.8</ele>
        <time>2014-02-16T13:09:46Z</time>
      </trkpt>
      <trkpt lat="43.76441" lon="5.2136">
        <ele>316.5</ele>
        <time>2014-02-16T13:09:53Z</time>
      </trkpt>
      <trkpt lat="43.76432" lon="5.21366">
        <ele>314.9</ele>
        <time>2014-02-16T13:10:00Z</time>
      </trkpt>
      <trkpt lat="43.76423" lon="5.21367">
        <ele>313.3</ele>
        <time>2014-02-16T13:10:07Z</time>
      </trkpt>
      <trkpt lat="43.76414" lon="5.21361">
        <ele>312.4</ele>
        <time>2014-02-16T13:10:15Z</time>
      </trkpt>
      <trkpt lat="43.76409" lon="5.21349">
        <ele>309.9</ele>
        <time>2014-02-16T13:10:23Z</time>
      </trkpt>
      <trkpt lat="43.76408" lon="5.21337">
        <ele>307.7</ele>
        <time>2014-02-16T13:10:31Z</time>
      </trkpt>
      <trkpt lat="43.7641" lon="5.21311">
        <ele>305.5</ele>
        <time>2014-02-16T13:10:47Z</time>
      </trkpt>
      <trkpt lat="43.7641" lon="5.21298">
        <ele>306.2</ele>
        <time>2014-02-16T13:10:55Z</time>
      </trkpt>
      <trkpt lat="43.76413" lon="5.21285">
        <ele>303.7</ele>
        <time>2014-02-16T13:11:03Z</time>
      </trkpt>
      <trkpt lat="43.76413" lon="5.21272">
        <ele>303.5</ele>
        <time>2014-02-16T13:11:12Z</time>
      </trkpt>
      <trkpt lat="43.76413" lon="5.21258">
        <ele>302.3</ele>
        <time>2014-02-16T13:11:21Z</time>
      </trkpt>
      <trkpt lat="43.76415" lon="5.21245">
        <ele>300.6</ele>
        <time>2014-02-16T13:11:30Z</time>
      </trkpt>
      <trkpt lat="43.76417" lon="5.21231">
        <ele>299.1</ele>
        <time>2014-02-16T13:11:40Z</time>
      </trkpt>
      <trkpt lat="43.76405" lon="5.21228">
        <ele>292.8</ele>
        <time>2014-02-16T13:12:11Z</time>
      </trkpt>
      <trkpt lat="43.76398" lon="5.21237">
        <ele>289.7</ele>
        <time>2014-02-16T13:12:22Z</time>
      </trkpt>
      <trkpt lat="43.76391" lon="5.21246">
        <ele>288.3</ele>
        <time>2014-02-16T13:12:33Z</time>
      </trkpt>
      <trkpt lat="43.76388" lon="5.21259">
        <ele>285.8</ele>
        <time>2014-02-16T13:14:20Z</time>
      </trkpt>
      <trkpt lat="43.76378" lon="5.21279">
        <ele>281.7</ele>
        <time>2014-02-16T13:14:35Z</time>
      </trkpt>
      <trkpt lat="43.76372" lon="5.21289">
        <ele>280.4</ele>
        <time>2014-02-16T13:14:42Z</time>
      </trkpt>
      <trkpt lat="43.76366" lon="5.213">
        <ele>278.8</ele>
        <time>2014-02-16T13:14:49Z</time>
      </trkpt>
      <trkpt lat="43.76359" lon="5.21309">
        <ele>277.1</ele>
        <time>2014-02-16T13:14:56Z</time>
      </trkpt>
      <trkpt lat="43.76353" lon="5.21319">
        <ele>275.4</ele>
        <time>2014-02-16T13:15:03Z</time>
      </trkpt>
      <trkpt lat="43.76347" lon="5.2133">
        <ele>274.3</ele>
        <time>2014-02-16T13:15:10Z</time>
      </trkpt>
      <trkpt lat="43.76342" lon="5.21341">
        <ele>272.6</ele>
        <time>2014-02-16T13:15:16Z</time>
      </trkpt>
      <trkpt lat="43.76338" lon="5.21353">
        <ele>270</ele>
        <time>2014-02-16T13:15:22Z</time>
      </trkpt>
      <trkpt lat="43.76333" lon="5.21381">
        <ele>267.2</ele>
        <time>2014-02-16T13:15:38Z</time>
      </trkpt>
      <trkpt lat="43.7633" lon="5.21393">
        <ele>265.5</ele>
        <time>2014-02-16T13:15:46Z</time>
      </trkpt>
      <trkpt lat="43.76331" lon="5.21407">
        <ele>263</ele>
        <time>2014-02-16T13:15:54Z</time>
      </trkpt>
      <trkpt lat="43.76334" lon="5.21418">
        <ele>261.4</ele>
        <time>2014-02-16T13:16:03Z</time>
      </trkpt>
      <trkpt lat="43.76337" lon="5.21432">
        <ele>259.7</ele>
        <time>2014-02-16T13:16:12Z</time>
      </trkpt>
      <trkpt lat="43.76337" lon="5.21445">
        <ele>257.4</ele>
        <time>2014-02-16T13:16:19Z</time>
      </trkpt>
      <trkpt lat="43.76332" lon="5.21455">
        <ele>256.5</ele>
        <time>2014-02-16T13:16:27Z</time>
      </trkpt>
      <trkpt lat="43.76321" lon="5.21476">
        <ele>252.7</ele>
        <time>2014-02-16T13:16:51Z</time>
      </trkpt>
      <trkpt lat="43.76315" lon="5.21485">
        <ele>251.1</ele>
        <time>2014-02-16T13:17:11Z</time>
      </trkpt>
      <trkpt lat="43.76306" lon="5.21487">
        <ele>250.6</ele>
        <time>2014-02-16T13:18:52Z</time>
      </trkpt>
      <trkpt lat="43.76293" lon="5.21506">
        <ele>249</ele>
        <time>2014-02-16T13:19:35Z</time>
      </trkpt>
      <trkpt lat="43.76286" lon="5.21515">
        <ele>246.6</ele>
        <time>2014-02-16T13:19:47Z</time>
      </trkpt>
      <trkpt lat="43.76282" lon="5.21528">
        <ele>246.1</ele>
        <time>2014-02-16T13:19:58Z</time>
      </trkpt>
      <trkpt lat="43.76269" lon="5.21545">
        <ele>243</ele>
        <time>2014-02-16T13:20:19Z</time>
      </trkpt>
      <trkpt lat="43.76259" lon="5.21546">
        <ele>240.5</ele>
        <time>2014-02-16T13:20:27Z</time>
      </trkpt>
      <trkpt lat="43.7625" lon="5.21552">
        <ele>240</ele>
        <time>2014-02-16T13:20:37Z</time>
      </trkpt>
      <trkpt lat="43.76242" lon="5.2156">
        <ele>239.8</ele>
        <time>2014-02-16T13:20:46Z</time>
      </trkpt>
      <trkpt lat="43.76235" lon="5.21569">
        <ele>237.2</ele>
        <time>2014-02-16T13:20:54Z</time>
      </trkpt>
      <trkpt lat="43.76227" lon="5.21576">
        <ele>236.8</ele>
        <time>2014-02-16T13:21:03Z</time>
      </trkpt>
      <trkpt lat="43.76213" lon="5.21593">
        <ele>234.7</ele>
        <time>2014-02-16T13:21:18Z</time>
      </trkpt>
      <trkpt lat="43.76206" lon="5.21602">
        <ele>233.5</ele>
        <time>2014-02-16T13:21:26Z</time>
      </trkpt>
      <trkpt lat="43.76199" lon="5.2161">
        <ele>233.7</ele>
        <time>2014-02-16T13:21:36Z</time>
      </trkpt>
      <trkpt lat="43.76191" lon="5.21617">
        <ele>231.5</ele>
        <time>2014-02-16T13:21:45Z</time>
      </trkpt>
      <trkpt lat="43.76183" lon="5.21625">
        <ele>230.1</ele>
        <time>2014-02-16T13:21:54Z</time>
      </trkpt>
      <trkpt lat="43.76176" lon="5.21634">
        <ele>228.6</ele>
        <time>2014-02-16T13:22:03Z</time>
      </trkpt>
      <trkpt lat="43.76172" lon="5.21647">
        <ele>227.9</ele>
        <time>2014-02-16T13:22:10Z</time>
      </trkpt>
      <trkpt lat="43.76164" lon="5.2167">
        <ele>224.8</ele>
        <time>2014-02-16T13:22:30Z</time>
      </trkpt>
      <trkpt lat="43.76162" lon="5.21683">
        <ele>223.5</ele>
        <time>2014-02-16T13:22:42Z</time>
      </trkpt>
      <trkpt lat="43.76162" lon="5.21695">
        <ele>221.9</ele>
        <time>2014-02-16T13:22:53Z</time>
      </trkpt>
      <trkpt lat="43.76157" lon="5.21708">
        <ele>220.4</ele>
        <time>2014-02-16T13:23:01Z</time>
      </trkpt>
      <trkpt lat="43.76152" lon="5.21718">
        <ele>219.2</ele>
        <time>2014-02-16T13:23:08Z</time>
      </trkpt>
      <trkpt lat="43.76148" lon="5.21731">
        <ele>219.2</ele>
        <time>2014-02-16T13:23:16Z</time>
      </trkpt>
      <trkpt lat="43.76139" lon="5.21752">
        <ele>215.4</ele>
        <time>2014-02-16T13:23:30Z</time>
      </trkpt>
      <trkpt lat="43.76134" lon="5.21764">
        <ele>215.1</ele>
        <time>2014-02-16T13:23:39Z</time>
      </trkpt>
      <trkpt lat="43.76129" lon="5.21775">
        <ele>214.7</ele>
        <time>2014-02-16T13:23:49Z</time>
      </trkpt>
      <trkpt lat="43.76124" lon="5.21787">
        <ele>212.4</ele>
        <time>2014-02-16T13:23:57Z</time>
      </trkpt>
      <trkpt lat="43.76122" lon="5.21799">
        <ele>211.5</ele>
        <time>2014-02-16T13:24:07Z</time>
      </trkpt>
      <trkpt lat="43.76119" lon="5.21812">
        <ele>210</ele>
        <time>2014-02-16T13:24:17Z</time>
      </trkpt>
      <trkpt lat="43.76109" lon="5.21835">
        <ele>208.8</ele>
        <time>2014-02-16T13:24:32Z</time>
      </trkpt>
      <trkpt lat="43.76103" lon="5.21845">
        <ele>207.6</ele>
        <time>2014-02-16T13:24:40Z</time>
      </trkpt>
      <trkpt lat="43.76096" lon="5.21855">
        <ele>206.4</ele>
        <time>2014-02-16T13:24:47Z</time>
      </trkpt>
      <trkpt lat="43.7609" lon="5.21864">
        <ele>205.6</ele>
        <time>2014-02-16T13:24:54Z</time>
      </trkpt>
      <trkpt lat="43.76083" lon="5.21872">
        <ele>205</ele>
        <time>2014-02-16T13:25:01Z</time>
      </trkpt>
      <trkpt lat="43.76076" lon="5.21881">
        <ele>205.1</ele>
        <time>2014-02-16T13:25:08Z</time>
      </trkpt>
      <trkpt lat="43.76068" lon="5.21888">
        <ele>203.9</ele>
        <time>2014-02-16T13:25:15Z</time>
      </trkpt>
      <trkpt lat="43.76058" lon="5.21891">
        <ele>202.3</ele>
        <time>2014-02-16T13:25:25Z</time>
      </trkpt>
      <trkpt lat="43.76041" lon="5.21878">
        <ele>202.3</ele>
        <time>2014-02-16T13:25:41Z</time>
      </trkpt>
      <trkpt lat="43.76032" lon="5.21878">
        <ele>202.5</ele>
        <time>2014-02-16T13:26:02Z</time>
      </trkpt>
      <trkpt lat="43.76022" lon="5.2188">
        <ele>203.7</ele>
        <time>2014-02-16T13:26:14Z</time>
      </trkpt>
      <trkpt lat="43.76013" lon="5.21881">
        <ele>204.9</ele>
        <time>2014-02-16T13:26:24Z</time>
      </trkpt>
      <trkpt lat="43.76003" lon="5.21884">
        <ele>204.9</ele>
        <time>2014-02-16T13:26:35Z</time>
      </trkpt>
      <trkpt lat="43.75985" lon="5.21879">
        <ele>207.5</ele>
        <time>2014-02-16T13:27:08Z</time>
      </trkpt>
      <trkpt lat="43.75976" lon="5.21877">
        <ele>208.9</ele>
        <time>2014-02-16T13:27:19Z</time>
      </trkpt>
      <trkpt lat="43.75967" lon="5.21876">
        <ele>210.1</ele>
        <time>2014-02-16T13:27:28Z</time>
      </trkpt>
      <trkpt lat="43.75958" lon="5.21873">
        <ele>211.7</ele>
        <time>2014-02-16T13:27:40Z</time>
      </trkpt>
      <trkpt lat="43.75943" lon="5.21859">
        <ele>213.6</ele>
        <time>2014-02-16T13:28:19Z</time>
      </trkpt>
      <trkpt lat="43.75935" lon="5.21853">
        <ele>213.6</ele>
        <time>2014-02-16T13:29:16Z</time>
      </trkpt>
      <trkpt lat="43.75923" lon="5.21833">
        <ele>217.4</ele>
        <time>2014-02-16T13:29:48Z</time>
      </trkpt>
      <trkpt lat="43.75918" lon="5.21823">
        <ele>218.5</ele>
        <time>2014-02-16T13:30:00Z</time>
      </trkpt>
      <trkpt lat="43.75914" lon="5.21812">
        <ele>219.6</ele>
        <time>2014-02-16T13:30:13Z</time>
      </trkpt>
      <trkpt lat="43.75912" lon="5.21799">
        <ele>221.8</ele>
        <time>2014-02-16T13:30:26Z</time>
      </trkpt>
      <trkpt lat="43.75911" lon="5.21773">
        <ele>224.6</ele>
        <time>2014-02-16T13:31:37Z</time>
      </trkpt>
      <trkpt lat="43.75911" lon="5.21748">
        <ele>227.5</ele>
        <time>2014-02-16T13:31:58Z</time>
      </trkpt>
      <trkpt lat="43.75911" lon="5.21735">
        <ele>230</ele>
        <time>2014-02-16T13:32:10Z</time>
      </trkpt>
      <trkpt lat="43.75909" lon="5.21722">
        <ele>230.8</ele>
        <time>2014-02-16T13:32:22Z</time>
      </trkpt>
      <trkpt lat="43.75909" lon="5.21709">
        <ele>231.7</ele>
        <time>2014-02-16T13:32:34Z</time>
      </trkpt>
      <trkpt lat="43.75909" lon="5.21696">
        <ele>232.9</ele>
        <time>2014-02-16T13:32:44Z</time>
      </trkpt>
      <trkpt lat="43.75913" lon="5.21671">
        <ele>235</ele>
        <time>2014-02-16T13:33:06Z</time>
      </trkpt>
      <trkpt lat="43.75915" lon="5.21659">
        <ele>235.3</ele>
        <time>2014-02-16T13:33:17Z</time>
      </trkpt>
      <trkpt lat="43.75916" lon="5.21646">
        <ele>237.5</ele>
        <time>2014-02-16T13:33:32Z</time>
      </trkpt>
      <trkpt lat="43.75918" lon="5.21634">
        <ele>238.7</ele>
        <time>2014-02-16T13:33:50Z</time>
      </trkpt>
      <trkpt lat="43.75922" lon="5.21608">
        <ele>239</ele>
        <time>2014-02-16T13:34:12Z</time>
      </trkpt>
      <trkpt lat="43.75923" lon="5.21595">
        <ele>240.5</ele>
        <time>2014-02-16T13:34:24Z</time>
      </trkpt>
      <trkpt lat="43.75925" lon="5.21582">
        <ele>241</ele>
        <time>2014-02-16T13:34:34Z</time>
      </trkpt>
      <trkpt lat="43.75927" lon="5.2157">
        <ele>239.9</ele>
        <time>2014-02-16T13:34:45Z</time>
      </trkpt>
      <trkpt lat="43.75928" lon="5.21557">
        <ele>240.5</ele>
        <time>2014-02-16T13:34:56Z</time>
      </trkpt>
      <trkpt lat="43.75932" lon="5.21531">
        <ele>241.9</ele>
        <time>2014-02-16T13:35:18Z</time>
      </trkpt>
      <trkpt lat="43.75936" lon="5.21519">
        <ele>242.2</ele>
        <time>2014-02-16T13:35:30Z</time>
      </trkpt>
      <trkpt lat="43.75938" lon="5.21506">
        <ele>243.8</ele>
        <time>2014-02-16T13:35:45Z</time>
      </trkpt>
      <trkpt lat="43.75941" lon="5.21493">
        <ele>244.1</ele>
        <time>2014-02-16T13:35:56Z</time>
      </trkpt>
      <trkpt lat="43.75943" lon="5.21481">
        <ele>244.1</ele>
        <time>2014-02-16T13:36:06Z</time>
      </trkpt>
      <trkpt lat="43.75951" lon="5.21455">
        <ele>245.4</ele>
        <time>2014-02-16T13:36:26Z</time>
      </trkpt>
      <trkpt lat="43.75955" lon="5.21444">
        <ele>244.8</ele>
        <time>2014-02-16T13:36:36Z</time>
      </trkpt>
      <trkpt lat="43.75959" lon="5.21431">
        <ele>245.6</ele>
        <time>2014-02-16T13:36:46Z</time>
      </trkpt>
      <trkpt lat="43.75964" lon="5.21419">
        <ele>245.3</ele>
        <time>2014-02-16T13:36:56Z</time>
      </trkpt>
      <trkpt lat="43.75967" lon="5.21408">
        <ele>246.9</ele>
        <time>2014-02-16T13:37:06Z</time>
      </trkpt>
      <trkpt lat="43.75969" lon="5.21395">
        <ele>246.1</ele>
        <time>2014-02-16T13:37:15Z</time>
      </trkpt>
      <trkpt lat="43.75966" lon="5.21369">
        <ele>246.9</ele>
        <time>2014-02-16T13:37:34Z</time>
      </trkpt>
      <trkpt lat="43.75964" lon="5.21357">
        <ele>247.5</ele>
        <time>2014-02-16T13:37:44Z</time>
      </trkpt>
      <trkpt lat="43.75962" lon="5.21344">
        <ele>247.8</ele>
        <time>2014-02-16T13:37:55Z</time>
      </trkpt>
      <trkpt lat="43.7596" lon="5.21332">
        <ele>249.1</ele>
        <time>2014-02-16T13:38:05Z</time>
      </trkpt>
      <trkpt lat="43.75958" lon="5.21319">
        <ele>249.1</ele>
        <time>2014-02-16T13:38:16Z</time>
      </trkpt>
      <trkpt lat="43.75952" lon="5.21293">
        <ele>249.2</ele>
        <time>2014-02-16T13:38:34Z</time>
      </trkpt>
      <trkpt lat="43.7595" lon="5.2128">
        <ele>248.2</ele>
        <time>2014-02-16T13:38:44Z</time>
      </trkpt>
      <trkpt lat="43.7595" lon="5.21267">
        <ele>249.5</ele>
        <time>2014-02-16T13:38:54Z</time>
      </trkpt>
      <trkpt lat="43.75949" lon="5.21254">
        <ele>249.8</ele>
        <time>2014-02-16T13:39:18Z</time>
      </trkpt>
      <trkpt lat="43.75949" lon="5.21227">
        <ele>251.3</ele>
        <time>2014-02-16T13:39:38Z</time>
      </trkpt>
      <trkpt lat="43.75948" lon="5.21214">
        <ele>250.1</ele>
        <time>2014-02-16T13:39:47Z</time>
      </trkpt>
      <trkpt lat="43.75946" lon="5.21202">
        <ele>251.4</ele>
        <time>2014-02-16T13:39:55Z</time>
      </trkpt>
      <trkpt lat="43.75945" lon="5.21188">
        <ele>251</ele>
        <time>2014-02-16T13:40:05Z</time>
      </trkpt>
      <trkpt lat="43.75943" lon="5.21175">
        <ele>250.2</ele>
        <time>2014-02-16T13:40:16Z</time>
      </trkpt>
      <trkpt lat="43.75942" lon="5.21162">
        <ele>250</ele>
        <time>2014-02-16T13:40:27Z</time>
      </trkpt>
      <trkpt lat="43.75941" lon="5.21135">
        <ele>248.9</ele>
        <time>2014-02-16T13:40:48Z</time>
      </trkpt>
      <trkpt lat="43.75939" lon="5.21123">
        <ele>247.8</ele>
        <time>2014-02-16T13:40:58Z</time>
      </trkpt>
      <trkpt lat="43.75937" lon="5.21111">
        <ele>247.2</ele>
        <time>2014-02-16T13:41:09Z</time>
      </trkpt>
      <trkpt lat="43.75934" lon="5.21098">
        <ele>247.9</ele>
        <time>2014-02-16T13:41:20Z</time>
      </trkpt>
      <trkpt lat="43.75932" lon="5.21085">
        <ele>246.6</ele>
        <time>2014-02-16T13:41:30Z</time>
      </trkpt>
      <trkpt lat="43.75925" lon="5.21062">
        <ele>245.3</ele>
        <time>2014-02-16T13:41:46Z</time>
      </trkpt>
      <trkpt lat="43.75923" lon="5.21049">
        <ele>244</ele>
        <time>2014-02-16T13:41:56Z</time>
      </trkpt>
      <trkpt lat="43.7592" lon="5.21036">
        <ele>243.4</ele>
        <time>2014-02-16T13:42:06Z</time>
      </trkpt>
      <trkpt lat="43.75918" lon="5.21023">
        <ele>243.4</ele>
        <time>2014-02-16T13:42:15Z</time>
      </trkpt>
      <trkpt lat="43.75915" lon="5.21011">
        <ele>242.1</ele>
        <time>2014-02-16T13:42:25Z</time>
      </trkpt>
      <trkpt lat="43.75913" lon="5.20999">
        <ele>240.8</ele>
        <time>2014-02-16T13:42:42Z</time>
      </trkpt>
      <trkpt lat="43.75914" lon="5.20973">
        <ele>240.4</ele>
        <time>2014-02-16T13:43:05Z</time>
      </trkpt>
      <trkpt lat="43.75915" lon="5.2096">
        <ele>239.4</ele>
        <time>2014-02-16T13:43:14Z</time>
      </trkpt>
      <trkpt lat="43.75917" lon="5.20947">
        <ele>239.4</ele>
        <time>2014-02-16T13:43:30Z</time>
      </trkpt>
      <trkpt lat="43.75919" lon="5.20934">
        <ele>239</ele>
        <time>2014-02-16T13:43:39Z</time>
      </trkpt>
      <trkpt lat="43.75923" lon="5.20923">
        <ele>238.5</ele>
        <time>2014-02-16T13:43:48Z</time>
      </trkpt>
      <trkpt lat="43.75927" lon="5.20899">
        <ele>238.2</ele>
        <time>2014-02-16T13:47:06Z</time>
      </trkpt>
      <trkpt lat="43.75936" lon="5.20876">
        <ele>237.4</ele>
        <time>2014-02-16T13:47:37Z</time>
      </trkpt>
      <trkpt lat="43.75938" lon="5.20862">
        <ele>237.8</ele>
        <time>2014-02-16T13:47:49Z</time>
      </trkpt>
      <trkpt lat="43.75942" lon="5.2085">
        <ele>238.9</ele>
        <time>2014-02-16T13:48:00Z</time>
      </trkpt>
      <trkpt lat="43.75947" lon="5.20839">
        <ele>236.9</ele>
        <time>2014-02-16T13:48:10Z</time>
      </trkpt>
      <trkpt lat="43.75957" lon="5.20816">
        <ele>235.1</ele>
        <time>2014-02-16T13:48:30Z</time>
      </trkpt>
      <trkpt lat="43.75963" lon="5.20806">
        <ele>235.2</ele>
        <time>2014-02-16T13:48:39Z</time>
      </trkpt>
      <trkpt lat="43.75968" lon="5.20795">
        <ele>234.3</ele>
        <time>2014-02-16T13:48:50Z</time>
      </trkpt>
      <trkpt lat="43.75973" lon="5.20784">
        <ele>234</ele>
        <time>2014-02-16T13:48:59Z</time>
      </trkpt>
      <trkpt lat="43.75978" lon="5.20773">
        <ele>233.2</ele>
        <time>2014-02-16T13:49:08Z</time>
      </trkpt>
      <trkpt lat="43.75984" lon="5.20763">
        <ele>232.5</ele>
        <time>2014-02-16T13:49:19Z</time>
      </trkpt>
      <trkpt lat="43.75995" lon="5.20742">
        <ele>230.6</ele>
        <time>2014-02-16T13:49:41Z</time>
      </trkpt>
      <trkpt lat="43.76" lon="5.20732">
        <ele>229.7</ele>
        <time>2014-02-16T13:49:51Z</time>
      </trkpt>
      <trkpt lat="43.76006" lon="5.20722">
        <ele>229.3</ele>
        <time>2014-02-16T13:50:04Z</time>
      </trkpt>
      <trkpt lat="43.76014" lon="5.20713">
        <ele>228.2</ele>
        <time>2014-02-16T13:50:16Z</time>
      </trkpt>
      <trkpt lat="43.76022" lon="5.20705">
        <ele>227.1</ele>
        <time>2014-02-16T13:50:27Z</time>
      </trkpt>
      <trkpt lat="43.76039" lon="5.20699">
        <ele>227.1</ele>
        <time>2014-02-16T13:50:47Z</time>
      </trkpt>
      <trkpt lat="43.76048" lon="5.20702">
        <ele>225.2</ele>
        <time>2014-02-16T13:51:00Z</time>
      </trkpt>
      <trkpt lat="43.76057" lon="5.20705">
        <ele>223.2</ele>
        <time>2014-02-16T13:51:10Z</time>
      </trkpt>
      <trkpt lat="43.76066" lon="5.20707">
        <ele>223.6</ele>
        <time>2014-02-16T13:51:18Z</time>
      </trkpt>
      <trkpt lat="43.76076" lon="5.20705">
        <ele>223.6</ele>
        <time>2014-02-16T13:51:26Z</time>
      </trkpt>
      <trkpt lat="43.76083" lon="5.20696">
        <ele>223.9</ele>
        <time>2014-02-16T13:51:34Z</time>
      </trkpt>
      <trkpt lat="43.7609" lon="5.20672">
        <ele>222.5</ele>
        <time>2014-02-16T13:51:50Z</time>
      </trkpt>
      <trkpt lat="43.76092" lon="5.20659">
        <ele>223.3</ele>
        <time>2014-02-16T13:52:00Z</time>
      </trkpt>
      <trkpt lat="43.76093" lon="5.20646">
        <ele>222.4</ele>
        <time>2014-02-16T13:52:09Z</time>
      </trkpt>
      <trkpt lat="43.76092" lon="5.20633">
        <ele>222.2</ele>
        <time>2014-02-16T13:52:16Z</time>
      </trkpt>
      <trkpt lat="43.76091" lon="5.2062">
        <ele>222</ele>
        <time>2014-02-16T13:52:48Z</time>
      </trkpt>
      <trkpt lat="43.76083" lon="5.20597">
        <ele>222.3</ele>
        <time>2014-02-16T13:53:11Z</time>
      </trkpt>
      <trkpt lat="43.76074" lon="5.20594">
        <ele>223.7</ele>
        <time>2014-02-16T13:53:22Z</time>
      </trkpt>
      <trkpt lat="43.76064" lon="5.20595">
        <ele>223</ele>
        <time>2014-02-16T13:53:32Z</time>
      </trkpt>
      <trkpt lat="43.76055" lon="5.20594">
        <ele>224.2</ele>
        <time>2014-02-16T13:53:43Z</time>
      </trkpt>
      <trkpt lat="43.76047" lon="5.20586">
        <ele>225</ele>
        <time>2014-02-16T13:53:55Z</time>
      </trkpt>
      <trkpt lat="43.76032" lon="5.20572">
        <ele>226.4</ele>
        <time>2014-02-16T13:54:12Z</time>
      </trkpt>
      <trkpt lat="43.76023" lon="5.20567">
        <ele>226.7</ele>
        <time>2014-02-16T13:54:20Z</time>
      </trkpt>
      <trkpt lat="43.76014" lon="5.20561">
        <ele>227.2</ele>
        <time>2014-02-16T13:54:29Z</time>
      </trkpt>
      <trkpt lat="43.76005" lon="5.20558">
        <ele>228.8</ele>
        <time>2014-02-16T13:54:38Z</time>
      </trkpt>
      <trkpt lat="43.75996" lon="5.20553">
        <ele>229.2</ele>
        <time>2014-02-16T13:54:46Z</time>
      </trkpt>
      <trkpt lat="43.75989" lon="5.20544">
        <ele>229.4</ele>
        <time>2014-02-16T13:54:54Z</time>
      </trkpt>
      <trkpt lat="43.75984" lon="5.20533">
        <ele>230.4</ele>
        <time>2014-02-16T13:55:03Z</time>
      </trkpt>
      <trkpt lat="43.75977" lon="5.20509">
        <ele>232.2</ele>
        <time>2014-02-16T13:55:24Z</time>
      </trkpt>
      <trkpt lat="43.75977" lon="5.20496">
        <ele>234</ele>
        <time>2014-02-16T13:55:35Z</time>
      </trkpt>
      <trkpt lat="43.75977" lon="5.20482">
        <ele>234.6</ele>
        <time>2014-02-16T13:55:46Z</time>
      </trkpt>
      <trkpt lat="43.75979" lon="5.20469">
        <ele>236.2</ele>
        <time>2014-02-16T13:55:56Z</time>
      </trkpt>
      <trkpt lat="43.7598" lon="5.20456">
        <ele>237.2</ele>
        <time>2014-02-16T13:56:06Z</time>
      </trkpt>
      <trkpt lat="43.75985" lon="5.20431">
        <ele>238.8</ele>
        <time>2014-02-16T13:56:26Z</time>
      </trkpt>
      <trkpt lat="43.75989" lon="5.2042">
        <ele>239.5</ele>
        <time>2014-02-16T13:56:41Z</time>
      </trkpt>
      <trkpt lat="43.75993" lon="5.20408">
        <ele>240.6</ele>
        <time>2014-02-16T13:57:12Z</time>
      </trkpt>
      <trkpt lat="43.76002" lon="5.20386">
        <ele>241.4</ele>
        <time>2014-02-16T13:57:48Z</time>
      </trkpt>
      <trkpt lat="43.76008" lon="5.20375">
        <ele>242.2</ele>
        <time>2014-02-16T13:57:59Z</time>
      </trkpt>
      <trkpt lat="43.76014" lon="5.20366">
        <ele>242.9</ele>
        <time>2014-02-16T13:58:10Z</time>
      </trkpt>
      <trkpt lat="43.7602" lon="5.20354">
        <ele>243.5</ele>
        <time>2014-02-16T13:58:20Z</time>
      </trkpt>
      <trkpt lat="43.76033" lon="5.20337">
        <ele>244.1</ele>
        <time>2014-02-16T13:58:45Z</time>
      </trkpt>
      <trkpt lat="43.76041" lon="5.20328">
        <ele>244.7</ele>
        <time>2014-02-16T13:58:57Z</time>
      </trkpt>
      <trkpt lat="43.76047" lon="5.20318">
        <ele>245.6</ele>
        <time>2014-02-16T13:59:10Z</time>
      </trkpt>
      <trkpt lat="43.76053" lon="5.20308">
        <ele>246.4</ele>
        <time>2014-02-16T13:59:20Z</time>
      </trkpt>
      <trkpt lat="43.76055" lon="5.20296">
        <ele>245.1</ele>
        <time>2014-02-16T13:59:31Z</time>
      </trkpt>
      <trkpt lat="43.76055" lon="5.20269">
        <ele>243.7</ele>
        <time>2014-02-16T13:59:50Z</time>
      </trkpt>
      <trkpt lat="43.76053" lon="5.20257">
        <ele>243.4</ele>
        <time>2014-02-16T13:59:59Z</time>
      </trkpt>
      <trkpt lat="43.76049" lon="5.20245">
        <ele>243.5</ele>
        <time>2014-02-16T14:00:08Z</time>
      </trkpt>
      <trkpt lat="43.76044" lon="5.20235">
        <ele>244.5</ele>
        <time>2014-02-16T14:00:17Z</time>
      </trkpt>
      <trkpt lat="43.76039" lon="5.20224">
        <ele>244.5</ele>
        <time>2014-02-16T14:00:29Z</time>
      </trkpt>
      <trkpt lat="43.76033" lon="5.20213">
        <ele>244.3</ele>
        <time>2014-02-16T14:00:39Z</time>
      </trkpt>
      <trkpt lat="43.76027" lon="5.20189">
        <ele>242.8</ele>
        <time>2014-02-16T14:00:56Z</time>
      </trkpt>
      <trkpt lat="43.76026" lon="5.20176">
        <ele>242.7</ele>
        <time>2014-02-16T14:01:11Z</time>
      </trkpt>
      <trkpt lat="43.76025" lon="5.20164">
        <ele>240.9</ele>
        <time>2014-02-16T14:01:19Z</time>
      </trkpt>
      <trkpt lat="43.76024" lon="5.2015">
        <ele>242.6</ele>
        <time>2014-02-16T14:01:28Z</time>
      </trkpt>
      <trkpt lat="43.76025" lon="5.20136">
        <ele>241.5</ele>
        <time>2014-02-16T14:01:39Z</time>
      </trkpt>
      <trkpt lat="43.76023" lon="5.20123">
        <ele>243.5</ele>
        <time>2014-02-16T14:01:49Z</time>
      </trkpt>
      <trkpt lat="43.76018" lon="5.20098">
        <ele>242.1</ele>
        <time>2014-02-16T14:02:13Z</time>
      </trkpt>
      <trkpt lat="43.76013" lon="5.20087">
        <ele>239.9</ele>
        <time>2014-02-16T14:02:28Z</time>
      </trkpt>
      <trkpt lat="43.76007" lon="5.20078">
        <ele>240.2</ele>
        <time>2014-02-16T14:02:39Z</time>
      </trkpt>
      <trkpt lat="43.76" lon="5.2007">
        <ele>241.1</ele>
        <time>2014-02-16T14:02:56Z</time>
      </trkpt>
      <trkpt lat="43.75982" lon="5.20059">
        <ele>242.6</ele>
        <time>2014-02-16T14:03:15Z</time>
      </trkpt>
      <trkpt lat="43.75973" lon="5.2006">
        <ele>241.3</ele>
        <time>2014-02-16T14:03:24Z</time>
      </trkpt>
      <trkpt lat="43.75963" lon="5.20065">
        <ele>242.2</ele>
        <time>2014-02-16T14:03:34Z</time>
      </trkpt>
      <trkpt lat="43.75954" lon="5.2007">
        <ele>241.2</ele>
        <time>2014-02-16T14:03:44Z</time>
      </trkpt>
      <trkpt lat="43.75945" lon="5.20071">
        <ele>241</ele>
        <time>2014-02-16T14:03:53Z</time>
      </trkpt>
      <trkpt lat="43.75936" lon="5.20066">
        <ele>241.3</ele>
        <time>2014-02-16T14:04:02Z</time>
      </trkpt>
      <trkpt lat="43.7593" lon="5.20041">
        <ele>240.6</ele>
        <time>2014-02-16T14:04:23Z</time>
      </trkpt>
      <trkpt lat="43.75928" lon="5.20028">
        <ele>240.8</ele>
        <time>2014-02-16T14:04:35Z</time>
      </trkpt>
      <trkpt lat="43.75926" lon="5.20016">
        <ele>242.5</ele>
        <time>2014-02-16T14:04:57Z</time>
      </trkpt>
      <trkpt lat="43.75928" lon="5.20029">
        <ele>241.1</ele>
        <time>2014-02-16T14:05:50Z</time>
      </trkpt>
      <trkpt lat="43.75943" lon="5.20027">
        <ele>247.5</ele>
        <time>2014-02-16T14:06:54Z</time>
      </trkpt>
      <trkpt lat="43.75955" lon="5.20008">
        <ele>251.3</ele>
        <time>2014-02-16T14:07:34Z</time>
      </trkpt>
      <trkpt lat="43.75948" lon="5.20017">
        <ele>247.5</ele>
        <time>2014-02-16T14:08:14Z</time>
      </trkpt>
      <trkpt lat="43.75931" lon="5.2002">
        <ele>241.9</ele>
        <time>2014-02-16T14:08:46Z</time>
      </trkpt>
      <trkpt lat="43.75927" lon="5.20008">
        <ele>241.8</ele>
        <time>2014-02-16T14:08:59Z</time>
      </trkpt>
      <trkpt lat="43.75922" lon="5.19997">
        <ele>240.7</ele>
        <time>2014-02-16T14:09:08Z</time>
      </trkpt>
      <trkpt lat="43.75913" lon="5.19991">
        <ele>237.8</ele>
        <time>2014-02-16T14:09:20Z</time>
      </trkpt>
      <trkpt lat="43.75896" lon="5.19984">
        <ele>235</ele>
        <time>2014-02-16T14:09:39Z</time>
      </trkpt>
      <trkpt lat="43.75886" lon="5.1998">
        <ele>232.5</ele>
        <time>2014-02-16T14:09:48Z</time>
      </trkpt>
      <trkpt lat="43.75878" lon="5.19973">
        <ele>231.7</ele>
        <time>2014-02-16T14:09:55Z</time>
      </trkpt>
      <trkpt lat="43.75871" lon="5.19962">
        <ele>233.1</ele>
        <time>2014-02-16T14:10:04Z</time>
      </trkpt>
      <trkpt lat="43.75866" lon="5.19951">
        <ele>233.3</ele>
        <time>2014-02-16T14:10:13Z</time>
      </trkpt>
      <trkpt lat="43.75861" lon="5.19939">
        <ele>234.8</ele>
        <time>2014-02-16T14:10:23Z</time>
      </trkpt>
      <trkpt lat="43.75849" lon="5.19918">
        <ele>237.1</ele>
        <time>2014-02-16T14:10:51Z</time>
      </trkpt>
      <trkpt lat="43.75845" lon="5.19907">
        <ele>239</ele>
        <time>2014-02-16T14:11:10Z</time>
      </trkpt>
      <trkpt lat="43.75846" lon="5.19894">
        <ele>238</ele>
        <time>2014-02-16T14:11:24Z</time>
      </trkpt>
      <trkpt lat="43.7585" lon="5.19882">
        <ele>240.8</ele>
        <time>2014-02-16T14:11:36Z</time>
      </trkpt>
      <trkpt lat="43.75866" lon="5.19876">
        <ele>247</ele>
        <time>2014-02-16T14:12:18Z</time>
      </trkpt>
      <trkpt lat="43.7587" lon="5.19864">
        <ele>248.7</ele>
        <time>2014-02-16T14:12:33Z</time>
      </trkpt>
      <trkpt lat="43.75878" lon="5.19858">
        <ele>249.6</ele>
        <time>2014-02-16T14:12:44Z</time>
      </trkpt>
      <trkpt lat="43.7588" lon="5.19874">
        <ele>251.9</ele>
        <time>2014-02-16T14:13:33Z</time>
      </trkpt>
      <trkpt lat="43.75889" lon="5.19873">
        <ele>259.9</ele>
        <time>2014-02-16T14:14:11Z</time>
      </trkpt>
      <trkpt lat="43.75907" lon="5.19862">
        <ele>260.9</ele>
        <time>2014-02-16T14:14:31Z</time>
      </trkpt>
      <trkpt lat="43.75915" lon="5.19868">
        <ele>261.7</ele>
        <time>2014-02-16T14:14:57Z</time>
      </trkpt>
      <trkpt lat="43.75918" lon="5.19881">
        <ele>261.5</ele>
        <time>2014-02-16T14:15:08Z</time>
      </trkpt>
      <trkpt lat="43.75912" lon="5.1989">
        <ele>262.7</ele>
        <time>2014-02-16T14:15:22Z</time>
      </trkpt>
      <trkpt lat="43.75894" lon="5.19889">
        <ele>265.3</ele>
        <time>2014-02-16T14:16:25Z</time>
      </trkpt>
      <trkpt lat="43.75891" lon="5.19901">
        <ele>264.4</ele>
        <time>2014-02-16T14:22:12Z</time>
      </trkpt>
      <trkpt lat="43.75908" lon="5.19895">
        <ele>265.3</ele>
        <time>2014-02-16T14:23:00Z</time>
      </trkpt>
      <trkpt lat="43.75917" lon="5.19893">
        <ele>263.3</ele>
        <time>2014-02-16T14:23:11Z</time>
      </trkpt>
      <trkpt lat="43.75921" lon="5.19882">
        <ele>262.2</ele>
        <time>2014-02-16T14:23:56Z</time>
      </trkpt>
      <trkpt lat="43.75927" lon="5.19874">
        <ele>261.5</ele>
        <time>2014-02-16T14:24:16Z</time>
      </trkpt>
      <trkpt lat="43.75927" lon="5.19886">
        <ele>260.1</ele>
        <time>2014-02-16T14:24:23Z</time>
      </trkpt>
      <trkpt lat="43.75923" lon="5.19897">
        <ele>259.5</ele>
        <time>2014-02-16T14:24:33Z</time>
      </trkpt>
      <trkpt lat="43.75927" lon="5.19886">
        <ele>258.5</ele>
        <time>2014-02-16T14:25:32Z</time>
      </trkpt>
      <trkpt lat="43.75918" lon="5.19866">
        <ele>261.7</ele>
        <time>2014-02-16T14:25:51Z</time>
      </trkpt>
      <trkpt lat="43.7591" lon="5.19861">
        <ele>262.7</ele>
        <time>2014-02-16T14:26:26Z</time>
      </trkpt>
      <trkpt lat="43.75902" lon="5.19868">
        <ele>263.1</ele>
        <time>2014-02-16T14:26:34Z</time>
      </trkpt>
      <trkpt lat="43.75887" lon="5.19882">
        <ele>259</ele>
        <time>2014-02-16T14:27:07Z</time>
      </trkpt>
      <trkpt lat="43.75878" lon="5.1988">
        <ele>256.4</ele>
        <time>2014-02-16T14:27:21Z</time>
      </trkpt>
      <trkpt lat="43.75869" lon="5.19879">
        <ele>251.1</ele>
        <time>2014-02-16T14:28:02Z</time>
      </trkpt>
      <trkpt lat="43.75851" lon="5.19881">
        <ele>242.4</ele>
        <time>2014-02-16T14:28:52Z</time>
      </trkpt>
      <trkpt lat="43.75849" lon="5.19894">
        <ele>240.1</ele>
        <time>2014-02-16T14:29:06Z</time>
      </trkpt>
      <trkpt lat="43.75857" lon="5.19917">
        <ele>238</ele>
        <time>2014-02-16T14:29:34Z</time>
      </trkpt>
      <trkpt lat="43.75861" lon="5.19929">
        <ele>235.7</ele>
        <time>2014-02-16T14:29:52Z</time>
      </trkpt>
      <trkpt lat="43.75868" lon="5.1994">
        <ele>235.6</ele>
        <time>2014-02-16T14:30:02Z</time>
      </trkpt>
      <trkpt lat="43.7587" lon="5.19952">
        <ele>234.1</ele>
        <time>2014-02-16T14:30:22Z</time>
      </trkpt>
      <trkpt lat="43.75876" lon="5.19973">
        <ele>234.2</ele>
        <time>2014-02-16T14:31:17Z</time>
      </trkpt>
      <trkpt lat="43.75884" lon="5.19978">
        <ele>236.6</ele>
        <time>2014-02-16T14:34:03Z</time>
      </trkpt>
      <trkpt lat="43.75902" lon="5.19981">
        <ele>238.8</ele>
        <time>2014-02-16T14:34:23Z</time>
      </trkpt>
      <trkpt lat="43.75911" lon="5.19986">
        <ele>240.3</ele>
        <time>2014-02-16T14:34:33Z</time>
      </trkpt>
      <trkpt lat="43.75917" lon="5.19995">
        <ele>242.4</ele>
        <time>2014-02-16T14:34:42Z</time>
      </trkpt>
      <trkpt lat="43.75922" lon="5.20006">
        <ele>243.5</ele>
        <time>2014-02-16T14:34:53Z</time>
      </trkpt>
      <trkpt lat="43.75924" lon="5.20019">
        <ele>243.6</ele>
        <time>2014-02-16T14:35:02Z</time>
      </trkpt>
      <trkpt lat="43.75926" lon="5.20033">
        <ele>243.4</ele>
        <time>2014-02-16T14:35:11Z</time>
      </trkpt>
      <trkpt lat="43.75928" lon="5.20059">
        <ele>243.6</ele>
        <time>2014-02-16T14:35:27Z</time>
      </trkpt>
      <trkpt lat="43.75934" lon="5.2007">
        <ele>242.6</ele>
        <time>2014-02-16T14:35:35Z</time>
      </trkpt>
      <trkpt lat="43.75944" lon="5.20071">
        <ele>242.2</ele>
        <time>2014-02-16T14:35:44Z</time>
      </trkpt>
      <trkpt lat="43.75953" lon="5.20068">
        <ele>243.5</ele>
        <time>2014-02-16T14:35:53Z</time>
      </trkpt>
      <trkpt lat="43.75962" lon="5.20063">
        <ele>242.9</ele>
        <time>2014-02-16T14:36:01Z</time>
      </trkpt>
      <trkpt lat="43.75971" lon="5.2006">
        <ele>242.7</ele>
        <time>2014-02-16T14:36:08Z</time>
      </trkpt>
      <trkpt lat="43.75981" lon="5.20058">
        <ele>243.8</ele>
        <time>2014-02-16T14:36:16Z</time>
      </trkpt>
      <trkpt lat="43.75999" lon="5.20067">
        <ele>242.9</ele>
        <time>2014-02-16T14:36:33Z</time>
      </trkpt>
      <trkpt lat="43.76006" lon="5.20074">
        <ele>242.4</ele>
        <time>2014-02-16T14:36:41Z</time>
      </trkpt>
      <trkpt lat="43.76013" lon="5.20083">
        <ele>241.9</ele>
        <time>2014-02-16T14:36:50Z</time>
      </trkpt>
      <trkpt lat="43.76016" lon="5.20095">
        <ele>243</ele>
        <time>2014-02-16T14:37:00Z</time>
      </trkpt>
      <trkpt lat="43.76017" lon="5.20107">
        <ele>243.1</ele>
        <time>2014-02-16T14:37:08Z</time>
      </trkpt>
      <trkpt lat="43.76019" lon="5.2012">
        <ele>244.4</ele>
        <time>2014-02-16T14:37:17Z</time>
      </trkpt>
      <trkpt lat="43.76034" lon="5.20135">
        <ele>244.9</ele>
        <time>2014-02-16T14:37:35Z</time>
      </trkpt>
      <trkpt lat="43.76042" lon="5.20141">
        <ele>245.9</ele>
        <time>2014-02-16T14:37:43Z</time>
      </trkpt>
      <trkpt lat="43.76049" lon="5.20149">
        <ele>246.5</ele>
        <time>2014-02-16T14:37:53Z</time>
      </trkpt>
      <trkpt lat="43.76053" lon="5.20161">
        <ele>248.7</ele>
        <time>2014-02-16T14:38:02Z</time>
      </trkpt>
      <trkpt lat="43.76057" lon="5.20173">
        <ele>249.7</ele>
        <time>2014-02-16T14:38:11Z</time>
      </trkpt>
      <trkpt lat="43.7606" lon="5.20185">
        <ele>248.8</ele>
        <time>2014-02-16T14:38:21Z</time>
      </trkpt>
      <trkpt lat="43.76067" lon="5.20209">
        <ele>250.8</ele>
        <time>2014-02-16T14:38:42Z</time>
      </trkpt>
      <trkpt lat="43.76072" lon="5.2022">
        <ele>251</ele>
        <time>2014-02-16T14:38:50Z</time>
      </trkpt>
      <trkpt lat="43.76075" lon="5.20233">
        <ele>252</ele>
        <time>2014-02-16T14:39:06Z</time>
      </trkpt>
      <trkpt lat="43.76079" lon="5.20245">
        <ele>254.4</ele>
        <time>2014-02-16T14:39:18Z</time>
      </trkpt>
      <trkpt lat="43.76082" lon="5.20258">
        <ele>256.6</ele>
        <time>2014-02-16T14:39:30Z</time>
      </trkpt>
      <trkpt lat="43.7609" lon="5.20281">
        <ele>260.1</ele>
        <time>2014-02-16T14:39:53Z</time>
      </trkpt>
      <trkpt lat="43.76095" lon="5.20293">
        <ele>261.9</ele>
        <time>2014-02-16T14:40:07Z</time>
      </trkpt>
      <trkpt lat="43.76103" lon="5.203">
        <ele>264.1</ele>
        <time>2014-02-16T14:40:24Z</time>
      </trkpt>
      <trkpt lat="43.76112" lon="5.20303">
        <ele>266.2</ele>
        <time>2014-02-16T14:40:40Z</time>
      </trkpt>
      <trkpt lat="43.76129" lon="5.20315">
        <ele>271.3</ele>
        <time>2014-02-16T14:41:11Z</time>
      </trkpt>
      <trkpt lat="43.76138" lon="5.20313">
        <ele>269.4</ele>
        <time>2014-02-16T14:41:24Z</time>
      </trkpt>
      <trkpt lat="43.76146" lon="5.20306">
        <ele>271.8</ele>
        <time>2014-02-16T14:41:35Z</time>
      </trkpt>
      <trkpt lat="43.76155" lon="5.20301">
        <ele>271.4</ele>
        <time>2014-02-16T14:41:46Z</time>
      </trkpt>
      <trkpt lat="43.76168" lon="5.20283">
        <ele>272.9</ele>
        <time>2014-02-16T14:42:16Z</time>
      </trkpt>
      <trkpt lat="43.76175" lon="5.20274">
        <ele>274.2</ele>
        <time>2014-02-16T14:42:28Z</time>
      </trkpt>
      <trkpt lat="43.76181" lon="5.20264">
        <ele>275.8</ele>
        <time>2014-02-16T14:42:41Z</time>
      </trkpt>
      <trkpt lat="43.76187" lon="5.20254">
        <ele>276.8</ele>
        <time>2014-02-16T14:42:53Z</time>
      </trkpt>
      <trkpt lat="43.76202" lon="5.20241">
        <ele>280.5</ele>
        <time>2014-02-16T14:43:17Z</time>
      </trkpt>
      <trkpt lat="43.76211" lon="5.20235">
        <ele>280.7</ele>
        <time>2014-02-16T14:43:29Z</time>
      </trkpt>
      <trkpt lat="43.7622" lon="5.20229">
        <ele>282.3</ele>
        <time>2014-02-16T14:43:41Z</time>
      </trkpt>
      <trkpt lat="43.76228" lon="5.20224">
        <ele>283.9</ele>
        <time>2014-02-16T14:43:53Z</time>
      </trkpt>
      <trkpt lat="43.76237" lon="5.2022">
        <ele>284.2</ele>
        <time>2014-02-16T14:44:05Z</time>
      </trkpt>
      <trkpt lat="43.76255" lon="5.20223">
        <ele>285.7</ele>
        <time>2014-02-16T14:44:28Z</time>
      </trkpt>
      <trkpt lat="43.76261" lon="5.20232">
        <ele>286.9</ele>
        <time>2014-02-16T14:44:39Z</time>
      </trkpt>
      <trkpt lat="43.76263" lon="5.20245">
        <ele>288.2</ele>
        <time>2014-02-16T14:44:51Z</time>
      </trkpt>
      <trkpt lat="43.76263" lon="5.20258">
        <ele>290.4</ele>
        <time>2014-02-16T14:45:05Z</time>
      </trkpt>
      <trkpt lat="43.76262" lon="5.20271">
        <ele>291.7</ele>
        <time>2014-02-16T14:45:18Z</time>
      </trkpt>
      <trkpt lat="43.76262" lon="5.20296">
        <ele>293.4</ele>
        <time>2014-02-16T14:45:41Z</time>
      </trkpt>
      <trkpt lat="43.76265" lon="5.20309">
        <ele>294.9</ele>
        <time>2014-02-16T14:45:54Z</time>
      </trkpt>
      <trkpt lat="43.76268" lon="5.2032">
        <ele>297.2</ele>
        <time>2014-02-16T14:46:17Z</time>
      </trkpt>
      <trkpt lat="43.7627" lon="5.20333">
        <ele>296.2</ele>
        <time>2014-02-16T14:47:23Z</time>
      </trkpt>
      <trkpt lat="43.76278" lon="5.20356">
        <ele>298.7</ele>
        <time>2014-02-16T14:47:45Z</time>
      </trkpt>
      <trkpt lat="43.76279" lon="5.20369">
        <ele>300.8</ele>
        <time>2014-02-16T14:47:57Z</time>
      </trkpt>
      <trkpt lat="43.76276" lon="5.20382">
        <ele>302.2</ele>
        <time>2014-02-16T14:48:08Z</time>
      </trkpt>
      <trkpt lat="43.76272" lon="5.20394">
        <ele>303.4</ele>
        <time>2014-02-16T14:48:17Z</time>
      </trkpt>
      <trkpt lat="43.76269" lon="5.20407">
        <ele>304.2</ele>
        <time>2014-02-16T14:48:26Z</time>
      </trkpt>
      <trkpt lat="43.76262" lon="5.20431">
        <ele>306</ele>
        <time>2014-02-16T14:48:44Z</time>
      </trkpt>
      <trkpt lat="43.7626" lon="5.20443">
        <ele>306.9</ele>
        <time>2014-02-16T14:48:52Z</time>
      </trkpt>
      <trkpt lat="43.76259" lon="5.20456">
        <ele>306.6</ele>
        <time>2014-02-16T14:49:01Z</time>
      </trkpt>
      <trkpt lat="43.76259" lon="5.2047">
        <ele>308</ele>
        <time>2014-02-16T14:49:11Z</time>
      </trkpt>
      <trkpt lat="43.76262" lon="5.20483">
        <ele>308.5</ele>
        <time>2014-02-16T14:49:21Z</time>
      </trkpt>
      <trkpt lat="43.76267" lon="5.20494">
        <ele>309.5</ele>
        <time>2014-02-16T14:49:29Z</time>
      </trkpt>
      <trkpt lat="43.7628" lon="5.20514">
        <ele>308.4</ele>
        <time>2014-02-16T14:49:46Z</time>
      </trkpt>
      <trkpt lat="43.76287" lon="5.20523">
        <ele>308.2</ele>
        <time>2014-02-16T14:49:54Z</time>
      </trkpt>
      <trkpt lat="43.76294" lon="5.20533">
        <ele>308.8</ele>
        <time>2014-02-16T14:50:02Z</time>
      </trkpt>
      <trkpt lat="43.76302" lon="5.20541">
        <ele>308</ele>
        <time>2014-02-16T14:50:10Z</time>
      </trkpt>
      <trkpt lat="43.76307" lon="5.20551">
        <ele>309.1</ele>
        <time>2014-02-16T14:50:18Z</time>
      </trkpt>
      <trkpt lat="43.76311" lon="5.20563">
        <ele>308.5</ele>
        <time>2014-02-16T14:50:26Z</time>
      </trkpt>
      <trkpt lat="43.76315" lon="5.20574">
        <ele>309.1</ele>
        <time>2014-02-16T14:50:34Z</time>
      </trkpt>
      <trkpt lat="43.76326" lon="5.20597">
        <ele>309.8</ele>
        <time>2014-02-16T14:50:51Z</time>
      </trkpt>
      <trkpt lat="43.76332" lon="5.20607">
        <ele>312.5</ele>
        <time>2014-02-16T14:51:00Z</time>
      </trkpt>
      <trkpt lat="43.76339" lon="5.20616">
        <ele>312.5</ele>
        <time>2014-02-16T14:51:10Z</time>
      </trkpt>
      <trkpt lat="43.76345" lon="5.20626">
        <ele>314.8</ele>
        <time>2014-02-16T14:51:21Z</time>
      </trkpt>
      <trkpt lat="43.76349" lon="5.20638">
        <ele>316.3</ele>
        <time>2014-02-16T14:51:32Z</time>
      </trkpt>
      <trkpt lat="43.76351" lon="5.2065">
        <ele>319.4</ele>
        <time>2014-02-16T14:51:43Z</time>
      </trkpt>
      <trkpt lat="43.7635" lon="5.20677">
        <ele>322.5</ele>
        <time>2014-02-16T14:52:05Z</time>
      </trkpt>
      <trkpt lat="43.7635" lon="5.20691">
        <ele>324.7</ele>
        <time>2014-02-16T14:52:16Z</time>
      </trkpt>
      <trkpt lat="43.7635" lon="5.20704">
        <ele>326.6</ele>
        <time>2014-02-16T14:52:30Z</time>
      </trkpt>
      <trkpt lat="43.7635" lon="5.20717">
        <ele>327.5</ele>
        <time>2014-02-16T14:52:40Z</time>
      </trkpt>
      <trkpt lat="43.76353" lon="5.2073">
        <ele>328.8</ele>
        <time>2014-02-16T14:52:51Z</time>
      </trkpt>
      <trkpt lat="43.7636" lon="5.20755">
        <ele>331.4</ele>
        <time>2014-02-16T14:53:10Z</time>
      </trkpt>
      <trkpt lat="43.76363" lon="5.20767">
        <ele>330.6</ele>
        <time>2014-02-16T14:53:18Z</time>
      </trkpt>
      <trkpt lat="43.76367" lon="5.20779">
        <ele>332.7</ele>
        <time>2014-02-16T14:53:27Z</time>
      </trkpt>
      <trkpt lat="43.76373" lon="5.2079">
        <ele>332.3</ele>
        <time>2014-02-16T14:53:35Z</time>
      </trkpt>
      <trkpt lat="43.7638" lon="5.20799">
        <ele>332.7</ele>
        <time>2014-02-16T14:53:44Z</time>
      </trkpt>
      <trkpt lat="43.76388" lon="5.20807">
        <ele>333.2</ele>
        <time>2014-02-16T14:53:53Z</time>
      </trkpt>
      <trkpt lat="43.76402" lon="5.20822">
        <ele>336.6</ele>
        <time>2014-02-16T14:54:17Z</time>
      </trkpt>
      <trkpt lat="43.7641" lon="5.2083">
        <ele>336.1</ele>
        <time>2014-02-16T14:54:32Z</time>
      </trkpt>
      <trkpt lat="43.76417" lon="5.20837">
        <ele>336.1</ele>
        <time>2014-02-16T14:54:41Z</time>
      </trkpt>
      <trkpt lat="43.76424" lon="5.20847">
        <ele>336</ele>
        <time>2014-02-16T14:54:50Z</time>
      </trkpt>
      <trkpt lat="43.7643" lon="5.20858">
        <ele>336.9</ele>
        <time>2014-02-16T14:54:58Z</time>
      </trkpt>
      <trkpt lat="43.76439" lon="5.20881">
        <ele>336.2</ele>
        <time>2014-02-16T14:55:13Z</time>
      </trkpt>
      <trkpt lat="43.76444" lon="5.20893">
        <ele>336.2</ele>
        <time>2014-02-16T14:55:21Z</time>
      </trkpt>
      <trkpt lat="43.7645" lon="5.20904">
        <ele>336.4</ele>
        <time>2014-02-16T14:55:30Z</time>
      </trkpt>
      <trkpt lat="43.76457" lon="5.20914">
        <ele>336.8</ele>
        <time>2014-02-16T14:55:39Z</time>
      </trkpt>
      <trkpt lat="43.76461" lon="5.20926">
        <ele>336.6</ele>
        <time>2014-02-16T14:55:47Z</time>
      </trkpt>
      <trkpt lat="43.76466" lon="5.20938">
        <ele>336.7</ele>
        <time>2014-02-16T14:55:56Z</time>
      </trkpt>
      <trkpt lat="43.76473" lon="5.20948">
        <ele>336.8</ele>
        <time>2014-02-16T14:56:06Z</time>
      </trkpt>
      <trkpt lat="43.76486" lon="5.20968">
        <ele>336.7</ele>
        <time>2014-02-16T14:56:22Z</time>
      </trkpt>
      <trkpt lat="43.76494" lon="5.20976">
        <ele>337.4</ele>
        <time>2014-02-16T14:56:35Z</time>
      </trkpt>
      <trkpt lat="43.76502" lon="5.20981">
        <ele>338.5</ele>
        <time>2014-02-16T14:56:45Z</time>
      </trkpt>
      <trkpt lat="43.76511" lon="5.20987">
        <ele>337.6</ele>
        <time>2014-02-16T14:56:54Z</time>
      </trkpt>
      <trkpt lat="43.76521" lon="5.2099">
        <ele>338.6</ele>
        <time>2014-02-16T14:57:04Z</time>
      </trkpt>
      <trkpt lat="43.7653" lon="5.2099">
        <ele>340</ele>
        <time>2014-02-16T14:57:12Z</time>
      </trkpt>
      <trkpt lat="43.76548" lon="5.2098">
        <ele>340.2</ele>
        <time>2014-02-16T14:57:28Z</time>
      </trkpt>
      <trkpt lat="43.76556" lon="5.20973">
        <ele>341.5</ele>
        <time>2014-02-16T14:57:36Z</time>
      </trkpt>
      <trkpt lat="43.76565" lon="5.20968">
        <ele>341.6</ele>
        <time>2014-02-16T14:57:46Z</time>
      </trkpt>
      <trkpt lat="43.76572" lon="5.2096">
        <ele>341.8</ele>
        <time>2014-02-16T14:58:04Z</time>
      </trkpt>
      <trkpt lat="43.7658" lon="5.20953">
        <ele>342.7</ele>
        <time>2014-02-16T14:59:38Z</time>
      </trkpt>
      <trkpt lat="43.76593" lon="5.20935">
        <ele>343.9</ele>
        <time>2014-02-16T15:00:04Z</time>
      </trkpt>
      <trkpt lat="43.766" lon="5.20925">
        <ele>344.4</ele>
        <time>2014-02-16T15:00:14Z</time>
      </trkpt>
      <trkpt lat="43.76609" lon="5.20919">
        <ele>344.1</ele>
        <time>2014-02-16T15:00:29Z</time>
      </trkpt>
      <trkpt lat="43.76617" lon="5.20911">
        <ele>346.5</ele>
        <time>2014-02-16T15:00:38Z</time>
      </trkpt>
      <trkpt lat="43.76624" lon="5.20902">
        <ele>346.8</ele>
        <time>2014-02-16T15:00:48Z</time>
      </trkpt>
      <trkpt lat="43.76641" lon="5.20888">
        <ele>349.3</ele>
        <time>2014-02-16T15:01:06Z</time>
      </trkpt>
      <trkpt lat="43.76648" lon="5.20878">
        <ele>348.3</ele>
        <time>2014-02-16T15:01:15Z</time>
      </trkpt>
      <trkpt lat="43.76654" lon="5.20868">
        <ele>347.3</ele>
        <time>2014-02-16T15:01:27Z</time>
      </trkpt>
      <trkpt lat="43.7666" lon="5.20859">
        <ele>347.5</ele>
        <time>2014-02-16T15:01:35Z</time>
      </trkpt>
      <trkpt lat="43.76665" lon="5.20848">
        <ele>347.6</ele>
        <time>2014-02-16T15:01:44Z</time>
      </trkpt>
      <trkpt lat="43.76672" lon="5.20838">
        <ele>346.6</ele>
        <time>2014-02-16T15:01:55Z</time>
      </trkpt>
      <trkpt lat="43.76687" lon="5.20823">
        <ele>345.8</ele>
        <time>2014-02-16T15:02:13Z</time>
      </trkpt>
      <trkpt lat="43.76695" lon="5.20816">
        <ele>346.4</ele>
        <time>2014-02-16T15:02:22Z</time>
      </trkpt>
      <trkpt lat="43.76704" lon="5.2081">
        <ele>345.4</ele>
        <time>2014-02-16T15:02:30Z</time>
      </trkpt>
      <trkpt lat="43.76712" lon="5.20804">
        <ele>344.6</ele>
        <time>2014-02-16T15:02:39Z</time>
      </trkpt>
      <trkpt lat="43.76721" lon="5.208">
        <ele>344.4</ele>
        <time>2014-02-16T15:02:49Z</time>
      </trkpt>
      <trkpt lat="43.7673" lon="5.20798">
        <ele>344</ele>
        <time>2014-02-16T15:02:58Z</time>
      </trkpt>
      <trkpt lat="43.76748" lon="5.20788">
        <ele>341.1</ele>
        <time>2014-02-16T15:03:17Z</time>
      </trkpt>
      <trkpt lat="43.76755" lon="5.20779">
        <ele>339.7</ele>
        <time>2014-02-16T15:03:28Z</time>
      </trkpt>
      <trkpt lat="43.76763" lon="5.20773">
        <ele>338.1</ele>
        <time>2014-02-16T15:03:37Z</time>
      </trkpt>
      <trkpt lat="43.7677" lon="5.20765">
        <ele>337.3</ele>
        <time>2014-02-16T15:03:45Z</time>
      </trkpt>
      <trkpt lat="43.76776" lon="5.20755">
        <ele>336.2</ele>
        <time>2014-02-16T15:03:58Z</time>
      </trkpt>
      <trkpt lat="43.76783" lon="5.20747">
        <ele>335.6</ele>
        <time>2014-02-16T15:04:07Z</time>
      </trkpt>
      <trkpt lat="43.76797" lon="5.20728">
        <ele>332.2</ele>
        <time>2014-02-16T15:04:25Z</time>
      </trkpt>
      <trkpt lat="43.76803" lon="5.20718">
        <ele>331.1</ele>
        <time>2014-02-16T15:04:34Z</time>
      </trkpt>
      <trkpt lat="43.7681" lon="5.20709">
        <ele>330.7</ele>
        <time>2014-02-16T15:04:43Z</time>
      </trkpt>
      <trkpt lat="43.76817" lon="5.20699">
        <ele>330.7</ele>
        <time>2014-02-16T15:04:51Z</time>
      </trkpt>
      <trkpt lat="43.76824" lon="5.2069">
        <ele>330.4</ele>
        <time>2014-02-16T15:04:59Z</time>
      </trkpt>
      <trkpt lat="43.7683" lon="5.20679">
        <ele>329.8</ele>
        <time>2014-02-16T15:05:07Z</time>
      </trkpt>
      <trkpt lat="43.76837" lon="5.2067">
        <ele>328.9</ele>
        <time>2014-02-16T15:05:15Z</time>
      </trkpt>
      <trkpt lat="43.76853" lon="5.20655">
        <ele>329.3</ele>
        <time>2014-02-16T15:05:33Z</time>
      </trkpt>
      <trkpt lat="43.76861" lon="5.2065">
        <ele>329.3</ele>
        <time>2014-02-16T15:05:42Z</time>
      </trkpt>
      <trkpt lat="43.76871" lon="5.20646">
        <ele>330.4</ele>
        <time>2014-02-16T15:05:53Z</time>
      </trkpt>
      <trkpt lat="43.7688" lon="5.20643">
        <ele>330.7</ele>
        <time>2014-02-16T15:06:02Z</time>
      </trkpt>
      <trkpt lat="43.76888" lon="5.20636">
        <ele>329.6</ele>
        <time>2014-02-16T15:06:11Z</time>
      </trkpt>
      <trkpt lat="43.76897" lon="5.20631">
        <ele>328.6</ele>
        <time>2014-02-16T15:06:21Z</time>
      </trkpt>
      <trkpt lat="43.76916" lon="5.20633">
        <ele>326.6</ele>
        <time>2014-02-16T15:06:39Z</time>
      </trkpt>
      <trkpt lat="43.76926" lon="5.20635">
        <ele>326.6</ele>
        <time>2014-02-16T15:06:47Z</time>
      </trkpt>
      <trkpt lat="43.76935" lon="5.20636">
        <ele>325.6</ele>
        <time>2014-02-16T15:06:56Z</time>
      </trkpt>
      <trkpt lat="43.76944" lon="5.20637">
        <ele>325.8</ele>
        <time>2014-02-16T15:07:06Z</time>
      </trkpt>
      <trkpt lat="43.76954" lon="5.20635">
        <ele>325.7</ele>
        <time>2014-02-16T15:07:17Z</time>
      </trkpt>
      <trkpt lat="43.76964" lon="5.20634">
        <ele>325.7</ele>
        <time>2014-02-16T15:07:31Z</time>
      </trkpt>
      <trkpt lat="43.76982" lon="5.20632">
        <ele>321</ele>
        <time>2014-02-16T15:07:50Z</time>
      </trkpt>
      <trkpt lat="43.76991" lon="5.20633">
        <ele>320.2</ele>
        <time>2014-02-16T15:07:59Z</time>
      </trkpt>
      <trkpt lat="43.77001" lon="5.2063">
        <ele>319.2</ele>
        <time>2014-02-16T15:08:10Z</time>
      </trkpt>
      <trkpt lat="43.7701" lon="5.20629">
        <ele>317.4</ele>
        <time>2014-02-16T15:08:20Z</time>
      </trkpt>
      <trkpt lat="43.77019" lon="5.2063">
        <ele>317.2</ele>
        <time>2014-02-16T15:08:55Z</time>
      </trkpt>
      <trkpt lat="43.77036" lon="5.2062">
        <ele>314.5</ele>
        <time>2014-02-16T15:09:44Z</time>
      </trkpt>
      <trkpt lat="43.77043" lon="5.20611">
        <ele>312.5</ele>
        <time>2014-02-16T15:09:55Z</time>
      </trkpt>
      <trkpt lat="43.7705" lon="5.20601">
        <ele>309.8</ele>
        <time>2014-02-16T15:10:05Z</time>
      </trkpt>
      <trkpt lat="43.77059" lon="5.20579">
        <ele>306</ele>
        <time>2014-02-16T15:10:31Z</time>
      </trkpt>
      <trkpt lat="43.77068" lon="5.20573">
        <ele>303.9</ele>
        <time>2014-02-16T15:10:41Z</time>
      </trkpt>
      <trkpt lat="43.77076" lon="5.20567">
        <ele>301.9</ele>
        <time>2014-02-16T15:10:52Z</time>
      </trkpt>
      <trkpt lat="43.77082" lon="5.20557">
        <ele>301.6</ele>
        <time>2014-02-16T15:11:05Z</time>
      </trkpt>
      <trkpt lat="43.77087" lon="5.20546">
        <ele>299.1</ele>
        <time>2014-02-16T15:11:22Z</time>
      </trkpt>
      <trkpt lat="43.77102" lon="5.20529">
        <ele>294.3</ele>
        <time>2014-02-16T15:11:43Z</time>
      </trkpt>
      <trkpt lat="43.77111" lon="5.20526">
        <ele>291.4</ele>
        <time>2014-02-16T15:11:54Z</time>
      </trkpt>
      <trkpt lat="43.7712" lon="5.20519">
        <ele>288.9</ele>
        <time>2014-02-16T15:12:06Z</time>
      </trkpt>
      <trkpt lat="43.77128" lon="5.20512">
        <ele>287.2</ele>
        <time>2014-02-16T15:12:18Z</time>
      </trkpt>
      <trkpt lat="43.77138" lon="5.20511">
        <ele>285.5</ele>
        <time>2014-02-16T15:12:29Z</time>
      </trkpt>
      <trkpt lat="43.77155" lon="5.20505">
        <ele>284.3</ele>
        <time>2014-02-16T15:12:47Z</time>
      </trkpt>
      <trkpt lat="43.77164" lon="5.20503">
        <ele>280.5</ele>
        <time>2014-02-16T15:12:57Z</time>
      </trkpt>
      <trkpt lat="43.7717" lon="5.20493">
        <ele>279.5</ele>
        <time>2014-02-16T15:13:26Z</time>
      </trkpt>
      <trkpt lat="43.7717" lon="5.2048">
        <ele>277.9</ele>
        <time>2014-02-16T15:13:36Z</time>
      </trkpt>
      <trkpt lat="43.77174" lon="5.20454">
        <ele>274.2</ele>
        <time>2014-02-16T15:13:54Z</time>
      </trkpt>
      <trkpt lat="43.77177" lon="5.2044">
        <ele>273.9</ele>
        <time>2014-02-16T15:14:02Z</time>
      </trkpt>
      <trkpt lat="43.77177" lon="5.20427">
        <ele>272.3</ele>
        <time>2014-02-16T15:14:10Z</time>
      </trkpt>
      <trkpt lat="43.77175" lon="5.20414">
        <ele>271.7</ele>
        <time>2014-02-16T15:14:32Z</time>
      </trkpt>
      <trkpt lat="43.77174" lon="5.20401">
        <ele>271</ele>
        <time>2014-02-16T15:14:41Z</time>
      </trkpt>
      <trkpt lat="43.77174" lon="5.20375">
        <ele>269.2</ele>
        <time>2014-02-16T15:14:57Z</time>
      </trkpt>
      <trkpt lat="43.77176" lon="5.20362">
        <ele>269.2</ele>
        <time>2014-02-16T15:15:05Z</time>
      </trkpt>
      <trkpt lat="43.77179" lon="5.2035">
        <ele>268.9</ele>
        <time>2014-02-16T15:15:13Z</time>
      </trkpt>
      <trkpt lat="43.77181" lon="5.20338">
        <ele>268.2</ele>
        <time>2014-02-16T15:15:21Z</time>
      </trkpt>
      <trkpt lat="43.77189" lon="5.20332">
        <ele>267.9</ele>
        <time>2014-02-16T15:15:31Z</time>
      </trkpt>
      <trkpt lat="43.77197" lon="5.20324">
        <ele>266.4</ele>
        <time>2014-02-16T15:15:41Z</time>
      </trkpt>
      <trkpt lat="43.772" lon="5.20312">
        <ele>268.5</ele>
        <time>2014-02-16T15:15:52Z</time>
      </trkpt>
      <trkpt lat="43.77207" lon="5.20287">
        <ele>270.3</ele>
        <time>2014-02-16T15:16:13Z</time>
      </trkpt>
      <trkpt lat="43.77209" lon="5.20275">
        <ele>270.9</ele>
        <time>2014-02-16T15:16:23Z</time>
      </trkpt>
      <trkpt lat="43.77209" lon="5.20261">
        <ele>271.8</ele>
        <time>2014-02-16T15:16:33Z</time>
      </trkpt>
      <trkpt lat="43.7721" lon="5.20248">
        <ele>273.3</ele>
        <time>2014-02-16T15:16:42Z</time>
      </trkpt>
      <trkpt lat="43.77211" lon="5.20235">
        <ele>275.2</ele>
        <time>2014-02-16T15:16:53Z</time>
      </trkpt>
      <trkpt lat="43.77217" lon="5.2021">
        <ele>278.6</ele>
        <time>2014-02-16T15:17:14Z</time>
      </trkpt>
      <trkpt lat="43.77219" lon="5.20198">
        <ele>278.7</ele>
        <time>2014-02-16T15:17:24Z</time>
      </trkpt>
      <trkpt lat="43.77219" lon="5.20185">
        <ele>282.9</ele>
        <time>2014-02-16T15:17:33Z</time>
      </trkpt>
      <trkpt lat="43.77219" lon="5.20172">
        <ele>285.1</ele>
        <time>2014-02-16T15:17:42Z</time>
      </trkpt>
      <trkpt lat="43.77226" lon="5.20165">
        <ele>285.4</ele>
        <time>2014-02-16T15:18:01Z</time>
      </trkpt>
      <trkpt lat="43.77231" lon="5.20141">
        <ele>288.4</ele>
        <time>2014-02-16T15:18:25Z</time>
      </trkpt>
      <trkpt lat="43.77237" lon="5.2013">
        <ele>291.2</ele>
        <time>2014-02-16T15:18:35Z</time>
      </trkpt>
      <trkpt lat="43.77243" lon="5.20121">
        <ele>290.9</ele>
        <time>2014-02-16T15:18:48Z</time>
      </trkpt>
      <trkpt lat="43.77252" lon="5.20117">
        <ele>290.8</ele>
        <time>2014-02-16T15:19:00Z</time>
      </trkpt>
      <trkpt lat="43.7726" lon="5.20114">
        <ele>291.3</ele>
        <time>2014-02-16T15:19:10Z</time>
      </trkpt>
      <trkpt lat="43.77272" lon="5.20096">
        <ele>290.1</ele>
        <time>2014-02-16T15:19:36Z</time>
      </trkpt>
      <trkpt lat="43.77273" lon="5.20083">
        <ele>289.9</ele>
        <time>2014-02-16T15:19:44Z</time>
      </trkpt>
      <trkpt lat="43.77274" lon="5.2007">
        <ele>291.5</ele>
        <time>2014-02-16T15:19:51Z</time>
      </trkpt>
      <trkpt lat="43.77274" lon="5.20057">
        <ele>292.4</ele>
        <time>2014-02-16T15:20:02Z</time>
      </trkpt>
      <trkpt lat="43.77275" lon="5.20045">
        <ele>291.6</ele>
        <time>2014-02-16T15:20:11Z</time>
      </trkpt>
      <trkpt lat="43.77273" lon="5.20018">
        <ele>290</ele>
        <time>2014-02-16T15:20:29Z</time>
      </trkpt>
      <trkpt lat="43.77273" lon="5.20005">
        <ele>291.2</ele>
        <time>2014-02-16T15:20:38Z</time>
      </trkpt>
      <trkpt lat="43.7727" lon="5.19993">
        <ele>289.2</ele>
        <time>2014-02-16T15:20:46Z</time>
      </trkpt>
      <trkpt lat="43.77268" lon="5.1998">
        <ele>288.5</ele>
        <time>2014-02-16T15:20:54Z</time>
      </trkpt>
      <trkpt lat="43.77271" lon="5.19967">
        <ele>288.7</ele>
        <time>2014-02-16T15:21:03Z</time>
      </trkpt>
      <trkpt lat="43.77272" lon="5.19955">
        <ele>287.4</ele>
        <time>2014-02-16T15:21:17Z</time>
      </trkpt>
      <trkpt lat="43.77273" lon="5.19928">
        <ele>286.1</ele>
        <time>2014-02-16T15:21:37Z</time>
      </trkpt>
      <trkpt lat="43.77275" lon="5.19915">
        <ele>284.9</ele>
        <time>2014-02-16T15:21:46Z</time>
      </trkpt>
      <trkpt lat="43.7728" lon="5.19902">
        <ele>283.8</ele>
        <time>2014-02-16T15:21:55Z</time>
      </trkpt>
      <trkpt lat="43.77286" lon="5.19892">
        <ele>283</ele>
        <time>2014-02-16T15:22:04Z</time>
      </trkpt>
      <trkpt lat="43.7729" lon="5.19881">
        <ele>282.1</ele>
        <time>2014-02-16T15:22:12Z</time>
      </trkpt>
      <trkpt lat="43.77295" lon="5.19869">
        <ele>281.5</ele>
        <time>2014-02-16T15:22:21Z</time>
      </trkpt>
      <trkpt lat="43.7731" lon="5.19856">
        <ele>278</ele>
        <time>2014-02-16T15:22:38Z</time>
      </trkpt>
      <trkpt lat="43.77317" lon="5.19846">
        <ele>275.1</ele>
        <time>2014-02-16T15:22:48Z</time>
      </trkpt>
      <trkpt lat="43.77323" lon="5.19835">
        <ele>272.9</ele>
        <time>2014-02-16T15:22:57Z</time>
      </trkpt>
      <trkpt lat="43.7733" lon="5.19825">
        <ele>271</ele>
        <time>2014-02-16T15:23:06Z</time>
      </trkpt>
      <trkpt lat="43.77335" lon="5.19814">
        <ele>268.4</ele>
        <time>2014-02-16T15:23:16Z</time>
      </trkpt>
      <trkpt lat="43.77338" lon="5.19801">
        <ele>266.6</ele>
        <time>2014-02-16T15:23:24Z</time>
      </trkpt>
      <trkpt lat="43.77344" lon="5.19776">
        <ele>264.1</ele>
        <time>2014-02-16T15:23:41Z</time>
      </trkpt>
      <trkpt lat="43.77343" lon="5.19763">
        <ele>265.7</ele>
        <time>2014-02-16T15:23:50Z</time>
      </trkpt>
      <trkpt lat="43.77344" lon="5.19751">
        <ele>264.6</ele>
        <time>2014-02-16T15:23:59Z</time>
      </trkpt>
      <trkpt lat="43.77344" lon="5.19737">
        <ele>264.8</ele>
        <time>2014-02-16T15:24:08Z</time>
      </trkpt>
      <trkpt lat="43.7735" lon="5.19726">
        <ele>266.7</ele>
        <time>2014-02-16T15:24:19Z</time>
      </trkpt>
      <trkpt lat="43.77355" lon="5.19714">
        <ele>266.2</ele>
        <time>2014-02-16T15:24:28Z</time>
      </trkpt>
      <trkpt lat="43.77358" lon="5.19689">
        <ele>265.1</ele>
        <time>2014-02-16T15:25:30Z</time>
      </trkpt>
      <trkpt lat="43.7735" lon="5.19666">
        <ele>267.9</ele>
        <time>2014-02-16T15:25:50Z</time>
      </trkpt>
      <trkpt lat="43.77345" lon="5.19655">
        <ele>269.2</ele>
        <time>2014-02-16T15:25:59Z</time>
      </trkpt>
      <trkpt lat="43.7734" lon="5.19645">
        <ele>270.4</ele>
        <time>2014-02-16T15:26:11Z</time>
      </trkpt>
      <trkpt lat="43.77334" lon="5.19633">
        <ele>271.4</ele>
        <time>2014-02-16T15:26:22Z</time>
      </trkpt>
      <trkpt lat="43.77331" lon="5.19621">
        <ele>272.2</ele>
        <time>2014-02-16T15:26:32Z</time>
      </trkpt>
      <trkpt lat="43.77324" lon="5.19598">
        <ele>274</ele>
        <time>2014-02-16T15:26:52Z</time>
      </trkpt>
      <trkpt lat="43.77319" lon="5.19586">
        <ele>275.9</ele>
        <time>2014-02-16T15:27:04Z</time>
      </trkpt>
      <trkpt lat="43.77315" lon="5.19573">
        <ele>276.3</ele>
        <time>2014-02-16T15:27:15Z</time>
      </trkpt>
      <trkpt lat="43.77312" lon="5.19561">
        <ele>278.5</ele>
        <time>2014-02-16T15:27:24Z</time>
      </trkpt>
      <trkpt lat="43.77308" lon="5.1955">
        <ele>278.9</ele>
        <time>2014-02-16T15:27:34Z</time>
      </trkpt>
      <trkpt lat="43.77309" lon="5.19523">
        <ele>278.9</ele>
        <time>2014-02-16T15:27:56Z</time>
      </trkpt>
      <trkpt lat="43.77307" lon="5.1951">
        <ele>280</ele>
        <time>2014-02-16T15:28:05Z</time>
      </trkpt>
      <trkpt lat="43.77306" lon="5.19497">
        <ele>281</ele>
        <time>2014-02-16T15:28:15Z</time>
      </trkpt>
      <trkpt lat="43.77306" lon="5.19484">
        <ele>281.9</ele>
        <time>2014-02-16T15:28:24Z</time>
      </trkpt>
      <trkpt lat="43.77308" lon="5.19471">
        <ele>281.7</ele>
        <time>2014-02-16T15:28:33Z</time>
      </trkpt>
      <trkpt lat="43.77309" lon="5.19457">
        <ele>281.8</ele>
        <time>2014-02-16T15:28:42Z</time>
      </trkpt>
      <trkpt lat="43.77315" lon="5.19433">
        <ele>283.9</ele>
        <time>2014-02-16T15:28:59Z</time>
      </trkpt>
      <trkpt lat="43.77323" lon="5.19427">
        <ele>281.4</ele>
        <time>2014-02-16T15:29:10Z</time>
      </trkpt>
      <trkpt lat="43.77332" lon="5.19421">
        <ele>279.2</ele>
        <time>2014-02-16T15:29:21Z</time>
      </trkpt>
      <trkpt lat="43.77341" lon="5.19417">
        <ele>277.5</ele>
        <time>2014-02-16T15:29:30Z</time>
      </trkpt>
      <trkpt lat="43.77349" lon="5.19411">
        <ele>276.3</ele>
        <time>2014-02-16T15:29:41Z</time>
      </trkpt>
      <trkpt lat="43.77357" lon="5.19403">
        <ele>275.3</ele>
        <time>2014-02-16T15:29:52Z</time>
      </trkpt>
      <trkpt lat="43.77374" lon="5.19391">
        <ele>274.7</ele>
        <time>2014-02-16T15:30:08Z</time>
      </trkpt>
      <trkpt lat="43.77384" lon="5.19387">
        <ele>274.3</ele>
        <time>2014-02-16T15:30:15Z</time>
      </trkpt>
      <trkpt lat="43.77391" lon="5.19379">
        <ele>275.4</ele>
        <time>2014-02-16T15:30:24Z</time>
      </trkpt>
      <trkpt lat="43.774" lon="5.19372">
        <ele>275.4</ele>
        <time>2014-02-16T15:30:32Z</time>
      </trkpt>
      <trkpt lat="43.77408" lon="5.19366">
        <ele>276.8</ele>
        <time>2014-02-16T15:30:41Z</time>
      </trkpt>
      <trkpt lat="43.77415" lon="5.19357">
        <ele>275.7</ele>
        <time>2014-02-16T15:31:04Z</time>
      </trkpt>
      <trkpt lat="43.77433" lon="5.19346">
        <ele>277.4</ele>
        <time>2014-02-16T15:31:23Z</time>
      </trkpt>
      <trkpt lat="43.77441" lon="5.19338">
        <ele>277.3</ele>
        <time>2014-02-16T15:31:31Z</time>
      </trkpt>
      <trkpt lat="43.77448" lon="5.1933">
        <ele>278.7</ele>
        <time>2014-02-16T15:31:39Z</time>
      </trkpt>
      <trkpt lat="43.77456" lon="5.19323">
        <ele>278.3</ele>
        <time>2014-02-16T15:31:48Z</time>
      </trkpt>
      <trkpt lat="43.77464" lon="5.19314">
        <ele>278.3</ele>
        <time>2014-02-16T15:31:56Z</time>
      </trkpt>
      <trkpt lat="43.77471" lon="5.19306">
        <ele>278</ele>
        <time>2014-02-16T15:32:04Z</time>
      </trkpt>
      <trkpt lat="43.77478" lon="5.19297">
        <ele>277.1</ele>
        <time>2014-02-16T15:32:13Z</time>
      </trkpt>
      <trkpt lat="43.77493" lon="5.19281">
        <ele>275.2</ele>
        <time>2014-02-16T15:32:35Z</time>
      </trkpt>
      <trkpt lat="43.77503" lon="5.19277">
        <ele>274.3</ele>
        <time>2014-02-16T15:32:43Z</time>
      </trkpt>
      <trkpt lat="43.77511" lon="5.19272">
        <ele>272.9</ele>
        <time>2014-02-16T15:32:51Z</time>
      </trkpt>
      <trkpt lat="43.77518" lon="5.19263">
        <ele>271.3</ele>
        <time>2014-02-16T15:33:01Z</time>
      </trkpt>
      <trkpt lat="43.77524" lon="5.19252">
        <ele>268.7</ele>
        <time>2014-02-16T15:33:12Z</time>
      </trkpt>
      <trkpt lat="43.77527" lon="5.19239">
        <ele>267.4</ele>
        <time>2014-02-16T15:33:22Z</time>
      </trkpt>
      <trkpt lat="43.77525" lon="5.19213">
        <ele>266.6</ele>
        <time>2014-02-16T15:33:55Z</time>
      </trkpt>
      <trkpt lat="43.77524" lon="5.192">
        <ele>264.8</ele>
        <time>2014-02-16T15:34:06Z</time>
      </trkpt>
      <trkpt lat="43.77525" lon="5.19187">
        <ele>263.8</ele>
        <time>2014-02-16T15:34:16Z</time>
      </trkpt>
      <trkpt lat="43.77524" lon="5.19173">
        <ele>264.2</ele>
        <time>2014-02-16T15:34:26Z</time>
      </trkpt>
      <trkpt lat="43.77511" lon="5.19155">
        <ele>263.6</ele>
        <time>2014-02-16T15:34:43Z</time>
      </trkpt>
      <trkpt lat="43.77503" lon="5.19147">
        <ele>262.8</ele>
        <time>2014-02-16T15:34:53Z</time>
      </trkpt>
      <trkpt lat="43.77494" lon="5.19145">
        <ele>261.9</ele>
        <time>2014-02-16T15:35:02Z</time>
      </trkpt>
      <trkpt lat="43.77485" lon="5.19143">
        <ele>261.5</ele>
        <time>2014-02-16T15:35:11Z</time>
      </trkpt>
      <trkpt lat="43.77476" lon="5.19138">
        <ele>262.9</ele>
        <time>2014-02-16T15:35:20Z</time>
      </trkpt>
      <trkpt lat="43.77469" lon="5.19128">
        <ele>262.1</ele>
        <time>2014-02-16T15:35:29Z</time>
      </trkpt>
      <trkpt lat="43.77455" lon="5.19112">
        <ele>264</ele>
        <time>2014-02-16T15:35:43Z</time>
      </trkpt>
      <trkpt lat="43.77446" lon="5.19107">
        <ele>263.2</ele>
        <time>2014-02-16T15:35:53Z</time>
      </trkpt>
      <trkpt lat="43.77439" lon="5.19099">
        <ele>264.2</ele>
        <time>2014-02-16T15:36:35Z</time>
      </trkpt>
      <trkpt lat="43.77438" lon="5.19101">
        <ele>265.4</ele>
        <time>2014-02-16T15:37:39Z</time>
      </trkpt>
    </trkseg>
  </trk>
</gpx>